GEC8264 EDDF-SAEZ
Flight info
| Callsign | GEC8264 |
|---|---|
| Flight time | N/A |
| Altitude | 30000 |
| Route | ULKIG4L/18 ULKIG Y180 DIK UN857 TOLVU/N0489F290 UN857 GIMER UT300 PON/N0487F310 UN872 ERIGA DCT FUJTI DCT ATLEN DCT ABUPI DCT ORSOS DCT VABEM DCT ABALO/M084F320 DCT KETID/N0500F300 DCT LAPTU/M084F340 DCT BAMUX/N0494F340 DCT XUVIT DCT MOVGA/N0493F360 UZ51 UKAVA/N0488F380 UZ51 PULUV UZ5 KUKOL UM532 CUARA UL324 KUKEN KUKEN6A |
| Aircraft | MD11/H-SDE1E2E3FGHIJ2J3J4J5M1RWXY/LB1D1 |
Departure
| Time | 2026-04-12 20:15 |
|---|---|
| Airport | Frankfurt Main Airport (EDDF) |
Arrival
| Time | N/A |
|---|---|
| Airport | Ezeiza International Airport - Ministro Pistarini (SAEZ) |
| Time | Latitude | Longitude | Altitude | Speed | Heading |
|---|---|---|---|---|---|
| 2026-04-12 19:25 | 50.04026 | 8.54340 | 356 ft | 0 kts | 69° |
| 2026-04-12 19:56 | 50.04024 | 8.54328 | 364 ft | 4 kts | 69° |
| 2026-04-12 19:56 | 50.04014 | 8.54289 | 360 ft | 4 kts | 69° |
| 2026-04-12 19:56 | 50.04004 | 8.54250 | 363 ft | 4 kts | 72° |
| 2026-04-12 19:57 | 50.04000 | 8.54215 | 362 ft | 4 kts | 107° |
| 2026-04-12 19:57 | 50.04002 | 8.54203 | 362 ft | 2 kts | 116° |
| 2026-04-12 19:57 | 50.03986 | 8.54227 | 362 ft | 4 kts | 144° |
| 2026-04-12 19:57 | 50.03962 | 8.54244 | 362 ft | 4 kts | 158° |
| 2026-04-12 19:58 | 50.03936 | 8.54258 | 360 ft | 4 kts | 161° |
| 2026-04-12 19:58 | 50.03920 | 8.54267 | 358 ft | 1 kts | 159° |
| 2026-04-12 20:10 | 50.03918 | 8.54268 | 354 ft | 0 kts | 159° |
| 2026-04-12 20:11 | 50.03878 | 8.54291 | 358 ft | 12 kts | 161° |
| 2026-04-12 20:11 | 50.03823 | 8.54280 | 355 ft | 3 kts | 214° |
| 2026-04-12 20:11 | 50.03803 | 8.54230 | 362 ft | 23 kts | 243° |
| 2026-04-12 20:11 | 50.03719 | 8.53887 | 358 ft | 29 kts | 250° |
| 2026-04-12 20:12 | 50.03663 | 8.53658 | 354 ft | 17 kts | 250° |
| 2026-04-12 20:12 | 50.03632 | 8.53537 | 351 ft | 10 kts | 248° |
| 2026-04-12 20:12 | 50.03603 | 8.53418 | 355 ft | 14 kts | 249° |
| 2026-04-12 20:12 | 50.03566 | 8.53262 | 355 ft | 16 kts | 250° |
| 2026-04-12 20:13 | 50.03527 | 8.53097 | 356 ft | 17 kts | 250° |
| 2026-04-12 20:13 | 50.03486 | 8.52927 | 348 ft | 17 kts | 250° |
| 2026-04-12 20:13 | 50.03405 | 8.52611 | 346 ft | 7 kts | 237° |
| 2026-04-12 20:14 | 50.03399 | 8.52601 | 354 ft | 1 kts | 223° |
| 2026-04-12 20:14 | 50.03384 | 8.52596 | 350 ft | 3 kts | 187° |
| 2026-04-12 20:14 | 50.03156 | 8.52595 | 348 ft | 65 kts | 179° |
| 2026-04-12 20:14 | 50.02496 | 8.52601 | 346 ft | 126 kts | 180° |
| 2026-04-12 20:15 | 50.01412 | 8.52617 | 338 ft | 182 kts | 179° |
| 2026-04-12 20:15 | 49.99985 | 8.52595 | 362 ft | 222 kts | 182° |
| 2026-04-12 20:15 | 49.98406 | 8.52463 | 957 ft | 231 kts | 188° |
| 2026-04-12 20:15 | 49.96829 | 8.51756 | 1581 ft | 246 kts | 206° |
| 2026-04-12 20:16 | 49.95363 | 8.50265 | 2213 ft | 258 kts | 218° |
| 2026-04-12 20:16 | 49.93931 | 8.48474 | 2844 ft | 271 kts | 216° |
| 2026-04-12 20:16 | 49.92530 | 8.46445 | 3505 ft | 283 kts | 229° |
| 2026-04-12 20:16 | 49.91340 | 8.44038 | 4599 ft | 276 kts | 229° |
| 2026-04-12 20:17 | 49.90020 | 8.41833 | 5102 ft | 280 kts | 224° |
| 2026-04-12 20:17 | 49.88665 | 8.39718 | 6106 ft | 279 kts | 224° |
| 2026-04-12 20:17 | 49.87282 | 8.37551 | 6914 ft | 283 kts | 225° |
| 2026-04-12 20:17 | 49.85860 | 8.35302 | 7270 ft | 308 kts | 225° |
| 2026-04-12 20:18 | 49.84316 | 8.32837 | 7875 ft | 320 kts | 225° |
| 2026-04-12 20:18 | 49.82771 | 8.30356 | 8834 ft | 324 kts | 225° |
| 2026-04-12 20:18 | 49.81219 | 8.27756 | 9781 ft | 327 kts | 230° |
| 2026-04-12 20:18 | 49.79953 | 8.24794 | 10303 ft | 345 kts | 244° |
| 2026-04-12 20:19 | 49.79318 | 8.21104 | 10431 ft | 373 kts | 265° |
| 2026-04-12 20:19 | 49.79525 | 8.16959 | 10606 ft | 396 kts | 279° |
| 2026-04-12 20:19 | 49.80185 | 8.12752 | 11287 ft | 404 kts | 283° |
| 2026-04-12 20:19 | 49.80955 | 8.08567 | 12093 ft | 407 kts | 284° |
| 2026-04-12 20:20 | 49.81724 | 8.04375 | 12874 ft | 409 kts | 283° |
| 2026-04-12 20:20 | 49.82477 | 8.00084 | 13634 ft | 412 kts | 282° |
| 2026-04-12 20:20 | 49.83201 | 7.95761 | 14317 ft | 414 kts | 281° |
| 2026-04-12 20:20 | 49.83901 | 7.91445 | 14952 ft | 417 kts | 280° |
| 2026-04-12 20:21 | 49.84476 | 7.87027 | 15500 ft | 416 kts | 271° |
| 2026-04-12 20:21 | 49.84352 | 7.82609 | 16112 ft | 411 kts | 256° |
| 2026-04-12 20:21 | 49.83484 | 7.78433 | 16709 ft | 409 kts | 243° |
| 2026-04-12 20:21 | 49.82213 | 7.74450 | 17291 ft | 411 kts | 241° |
| 2026-04-12 20:22 | 49.80976 | 7.70500 | 18557 ft | 379 kts | 243° |
| 2026-04-12 20:22 | 49.79984 | 7.66869 | 20012 ft | 372 kts | 244° |
| 2026-04-12 20:22 | 49.79038 | 7.63028 | 20133 ft | 384 kts | 246° |
| 2026-04-12 20:22 | 49.78174 | 7.59096 | 20419 ft | 391 kts | 248° |
| 2026-04-12 20:23 | 49.77348 | 7.55053 | 20836 ft | 394 kts | 249° |
| 2026-04-12 20:23 | 49.76554 | 7.51012 | 21256 ft | 397 kts | 249° |
| 2026-04-12 20:23 | 49.75756 | 7.46885 | 21666 ft | 400 kts | 249° |
| 2026-04-12 20:23 | 49.74794 | 7.42357 | 22122 ft | 400 kts | 246° |
| 2026-04-12 20:24 | 49.72701 | 7.34389 | 22832 ft | 407 kts | 243° |
| 2026-04-12 20:24 | 49.70421 | 7.26244 | 23631 ft | 412 kts | 243° |
| 2026-04-12 20:24 | 49.68150 | 7.18195 | 24527 ft | 411 kts | 243° |
| 2026-04-12 20:24 | 49.65571 | 7.10269 | 25218 ft | 412 kts | 237° |
| 2026-04-12 20:25 | 49.62387 | 7.02863 | 25916 ft | 413 kts | 230° |
| 2026-04-12 20:25 | 49.58693 | 6.96177 | 26586 ft | 415 kts | 224° |
| 2026-04-12 20:25 | 49.54436 | 6.90124 | 27458 ft | 411 kts | 218° |
| 2026-04-12 20:25 | 49.49925 | 6.84868 | 28277 ft | 409 kts | 215° |
| 2026-04-12 20:26 | 49.45270 | 6.79739 | 29112 ft | 406 kts | 215° |
| 2026-04-12 20:26 | 49.40717 | 6.74774 | 29885 ft | 404 kts | 215° |
| 2026-04-12 20:26 | 49.36921 | 6.68425 | 29986 ft | 415 kts | 239° |
| 2026-04-12 20:26 | 49.35405 | 6.59604 | 29965 ft | 443 kts | 262° |
| 2026-04-12 20:27 | 49.35164 | 6.50099 | 29959 ft | 451 kts | 259° |
| 2026-04-12 20:27 | 49.32604 | 6.31491 | 29964 ft | 445 kts | 249° |
| 2026-04-12 20:28 | 49.29192 | 6.13285 | 29966 ft | 445 kts | 249° |
| 2026-04-12 20:28 | 49.25783 | 5.95081 | 29966 ft | 445 kts | 249° |
| 2026-04-12 20:29 | 49.22349 | 5.76875 | 29969 ft | 445 kts | 249° |
| 2026-04-12 20:29 | 49.18904 | 5.58790 | 29970 ft | 444 kts | 248° |
| 2026-04-12 20:30 | 49.15369 | 5.40735 | 29972 ft | 446 kts | 248° |
| 2026-04-12 20:30 | 49.11814 | 5.22530 | 29976 ft | 443 kts | 248° |
| 2026-04-12 20:31 | 49.08283 | 5.04515 | 29974 ft | 443 kts | 247° |
| 2026-04-12 20:31 | 49.04720 | 4.86506 | 29974 ft | 443 kts | 247° |
| 2026-04-12 20:32 | 49.01152 | 4.68640 | 29990 ft | 441 kts | 247° |
| 2026-04-12 20:32 | 48.97565 | 4.50853 | 29988 ft | 442 kts | 246° |
| 2026-04-12 20:33 | 48.93939 | 4.33015 | 29990 ft | 438 kts | 246° |
| 2026-04-12 20:33 | 48.90228 | 4.15291 | 29988 ft | 438 kts | 246° |
| 2026-04-12 20:34 | 48.86589 | 3.97763 | 29988 ft | 437 kts | 246° |
| 2026-04-12 20:34 | 48.82894 | 3.80068 | 29981 ft | 438 kts | 246° |
| 2026-04-12 20:35 | 48.79192 | 3.62505 | 29976 ft | 437 kts | 245° |
| 2026-04-12 20:35 | 48.75474 | 3.45013 | 29982 ft | 435 kts | 245° |
| 2026-04-12 20:36 | 48.71757 | 3.27674 | 29974 ft | 434 kts | 245° |
| 2026-04-12 20:36 | 48.67999 | 3.10334 | 29964 ft | 433 kts | 245° |
| 2026-04-12 20:37 | 48.64181 | 2.93130 | 29966 ft | 431 kts | 244° |
| 2026-04-12 20:37 | 48.60390 | 2.75922 | 29960 ft | 433 kts | 244° |
| 2026-04-12 20:38 | 48.56568 | 2.58675 | 30007 ft | 433 kts | 244° |
| 2026-04-12 20:38 | 48.52721 | 2.41461 | 29959 ft | 430 kts | 243° |
| 2026-04-12 20:39 | 48.48871 | 2.24388 | 29957 ft | 430 kts | 243° |
| 2026-04-12 20:39 | 48.45006 | 2.07367 | 29955 ft | 427 kts | 243° |
| 2026-04-12 20:40 | 48.41123 | 1.90481 | 29964 ft | 430 kts | 242° |
| 2026-04-12 20:40 | 48.37144 | 1.73521 | 29962 ft | 431 kts | 243° |
| 2026-04-12 20:41 | 48.33226 | 1.56681 | 29955 ft | 426 kts | 243° |
| 2026-04-12 20:41 | 48.29299 | 1.39943 | 29953 ft | 426 kts | 242° |
| 2026-04-12 20:42 | 48.25326 | 1.23130 | 29964 ft | 423 kts | 242° |
| 2026-04-12 20:42 | 48.21377 | 1.06551 | 29949 ft | 423 kts | 242° |
| 2026-04-12 20:43 | 48.19267 | 0.97752 | 29953 ft | 425 kts | 242° |
| 2026-04-12 20:43 | 48.17606 | 0.90838 | 29956 ft | 425 kts | 242° |
| 2026-04-12 20:44 | 48.15264 | 0.81128 | 29977 ft | 423 kts | 242° |
| 2026-04-12 20:44 | 48.13580 | 0.74202 | 29960 ft | 423 kts | 241° |
| 2026-04-12 20:45 | 48.11533 | 0.65958 | 29954 ft | 422 kts | 241° |
| 2026-04-12 20:45 | 48.09509 | 0.57759 | 29955 ft | 423 kts | 241° |
| 2026-04-12 20:46 | 48.07477 | 0.49485 | 29957 ft | 423 kts | 241° |
| 2026-04-12 20:46 | 48.05454 | 0.41257 | 30005 ft | 423 kts | 241° |
| 2026-04-12 20:47 | 48.03442 | 0.33085 | 29960 ft | 418 kts | 241° |
| 2026-04-12 20:47 | 48.01420 | 0.24925 | 29961 ft | 418 kts | 241° |
| 2026-04-12 20:48 | 47.99393 | 0.16782 | 29960 ft | 420 kts | 241° |
| 2026-04-12 20:48 | 47.97355 | 0.08609 | 29960 ft | 420 kts | 241° |
| 2026-04-12 20:49 | 47.95305 | 0.00419 | 29959 ft | 420 kts | 241° |
| 2026-04-12 20:49 | 47.93269 | -0.07691 | 29955 ft | 418 kts | 240° |
| 2026-04-12 20:50 | 47.91219 | -0.15821 | 29958 ft | 418 kts | 240° |
| 2026-04-12 20:50 | 47.89172 | -0.23908 | 29955 ft | 418 kts | 240° |
| 2026-04-12 20:51 | 47.87105 | -0.32047 | 29955 ft | 418 kts | 240° |
| 2026-04-12 20:51 | 47.85055 | -0.40088 | 29957 ft | 417 kts | 240° |
| 2026-04-12 20:52 | 47.82952 | -0.48157 | 29954 ft | 417 kts | 239° |
| 2026-04-12 20:52 | 47.80857 | -0.56206 | 29957 ft | 418 kts | 240° |
| 2026-04-12 20:53 | 47.78778 | -0.64240 | 29955 ft | 419 kts | 240° |
| 2026-04-12 20:53 | 47.76679 | -0.72356 | 29951 ft | 419 kts | 240° |
| 2026-04-12 20:54 | 47.74579 | -0.80455 | 29952 ft | 419 kts | 240° |
| 2026-04-12 20:54 | 47.72468 | -0.88562 | 29963 ft | 421 kts | 239° |
| 2026-04-12 20:55 | 47.70351 | -0.96659 | 29955 ft | 422 kts | 239° |
| 2026-04-12 20:55 | 47.68217 | -1.04803 | 29954 ft | 422 kts | 239° |
| 2026-04-12 20:56 | 47.66093 | -1.12878 | 29959 ft | 422 kts | 239° |
| 2026-04-12 20:56 | 47.63952 | -1.20988 | 29954 ft | 422 kts | 239° |
| 2026-04-12 20:57 | 47.61801 | -1.29104 | 29962 ft | 422 kts | 239° |
| 2026-04-12 20:57 | 47.59649 | -1.37199 | 29954 ft | 422 kts | 239° |
| 2026-04-12 20:58 | 47.57499 | -1.45255 | 29953 ft | 423 kts | 239° |
| 2026-04-12 20:58 | 47.55333 | -1.53344 | 29956 ft | 424 kts | 239° |
| 2026-04-12 20:59 | 47.53121 | -1.61467 | 29953 ft | 423 kts | 238° |
| 2026-04-12 20:59 | 47.50922 | -1.69498 | 29979 ft | 425 kts | 238° |
| 2026-04-12 21:00 | 47.48720 | -1.77590 | 29957 ft | 425 kts | 239° |
| 2026-04-12 21:00 | 47.46509 | -1.85735 | 29961 ft | 425 kts | 239° |
| 2026-04-12 21:01 | 47.44298 | -1.93856 | 29979 ft | 425 kts | 238° |
| 2026-04-12 21:01 | 47.42084 | -2.01956 | 29987 ft | 425 kts | 238° |
| 2026-04-12 21:02 | 47.39869 | -2.10028 | 30015 ft | 427 kts | 240° |
| 2026-04-12 21:02 | 47.37611 | -2.18221 | 29987 ft | 432 kts | 240° |
| 2026-04-12 21:03 | 47.35355 | -2.26398 | 29978 ft | 433 kts | 240° |
| 2026-04-12 21:03 | 47.33070 | -2.34651 | 29983 ft | 432 kts | 240° |
| 2026-04-12 21:04 | 47.30799 | -2.42819 | 29976 ft | 432 kts | 240° |
| 2026-04-12 21:04 | 47.28509 | -2.51021 | 29993 ft | 435 kts | 242° |
| 2026-04-12 21:05 | 47.26177 | -2.59339 | 29970 ft | 441 kts | 242° |
| 2026-04-12 21:05 | 47.23835 | -2.67681 | 29965 ft | 441 kts | 242° |
| 2026-04-12 21:06 | 47.21451 | -2.76021 | 29966 ft | 441 kts | 242° |
| 2026-04-12 21:06 | 47.19065 | -2.84346 | 29971 ft | 441 kts | 242° |
| 2026-04-12 21:07 | 47.16697 | -2.92645 | 29985 ft | 446 kts | 244° |
| 2026-04-12 21:07 | 47.14344 | -3.01140 | 29977 ft | 452 kts | 248° |
| 2026-04-12 21:08 | 47.13356 | -3.10331 | 29977 ft | 462 kts | 264° |
| 2026-04-12 21:08 | 47.13486 | -3.19800 | 29981 ft | 465 kts | 266° |
| 2026-04-12 21:09 | 47.13611 | -3.29286 | 29986 ft | 463 kts | 265° |
| 2026-04-12 21:09 | 47.13587 | -3.38747 | 29981 ft | 463 kts | 266° |
| 2026-04-12 21:10 | 47.13502 | -3.48159 | 29976 ft | 463 kts | 265° |
| 2026-04-12 21:10 | 47.13403 | -3.57631 | 29979 ft | 463 kts | 265° |
| 2026-04-12 21:11 | 47.13300 | -3.67016 | 29984 ft | 462 kts | 265° |
| 2026-04-12 21:11 | 47.13190 | -3.76479 | 29986 ft | 463 kts | 266° |
| 2026-04-12 21:12 | 47.13073 | -3.85961 | 29982 ft | 463 kts | 266° |
| 2026-04-12 21:12 | 47.12949 | -3.95368 | 29982 ft | 463 kts | 266° |
| 2026-04-12 21:13 | 47.12817 | -4.04822 | 29982 ft | 463 kts | 266° |
| 2026-04-12 21:13 | 47.12676 | -4.14274 | 29997 ft | 463 kts | 268° |
| 2026-04-12 21:14 | 47.12528 | -4.23731 | 29979 ft | 463 kts | 268° |
| 2026-04-12 21:14 | 47.12336 | -4.33172 | 29980 ft | 463 kts | 267° |
| 2026-04-12 21:15 | 47.12141 | -4.42639 | 29979 ft | 463 kts | 267° |
| 2026-04-12 21:15 | 47.11962 | -4.52033 | 29990 ft | 463 kts | 267° |
| 2026-04-12 21:16 | 47.11783 | -4.61484 | 29991 ft | 463 kts | 267° |
| 2026-04-12 21:16 | 47.11598 | -4.70896 | 29991 ft | 463 kts | 267° |
| 2026-04-12 21:17 | 47.11403 | -4.80356 | 29990 ft | 463 kts | 267° |
| 2026-04-12 21:17 | 47.11201 | -4.89812 | 29985 ft | 463 kts | 267° |
| 2026-04-12 21:18 | 47.10990 | -4.99257 | 29989 ft | 462 kts | 268° |
| 2026-04-12 21:18 | 47.10772 | -5.08692 | 29984 ft | 462 kts | 268° |
| 2026-04-12 21:19 | 47.10548 | -5.18081 | 29988 ft | 462 kts | 268° |
| 2026-04-12 21:19 | 47.10315 | -5.27516 | 29985 ft | 462 kts | 268° |
| 2026-04-12 21:20 | 47.10073 | -5.36954 | 29982 ft | 462 kts | 270° |
| 2026-04-12 21:20 | 47.09824 | -5.46345 | 29993 ft | 460 kts | 270° |
| 2026-04-12 21:21 | 47.09532 | -5.55688 | 29988 ft | 460 kts | 269° |
| 2026-04-12 21:21 | 47.09240 | -5.65067 | 29988 ft | 459 kts | 269° |
| 2026-04-12 21:22 | 47.08963 | -5.74413 | 29994 ft | 459 kts | 270° |
| 2026-04-12 21:22 | 47.08685 | -5.83749 | 29988 ft | 456 kts | 271° |
| 2026-04-12 21:23 | 47.08403 | -5.93037 | 29991 ft | 455 kts | 271° |
| 2026-04-12 21:23 | 47.08114 | -6.02303 | 29991 ft | 455 kts | 271° |
| 2026-04-12 21:24 | 47.07818 | -6.11517 | 29991 ft | 455 kts | 271° |
| 2026-04-12 21:24 | 47.07512 | -6.20808 | 29986 ft | 453 kts | 272° |
| 2026-04-12 21:25 | 47.07200 | -6.30010 | 29992 ft | 450 kts | 272° |
| 2026-04-12 21:25 | 47.06886 | -6.39141 | 29992 ft | 450 kts | 272° |
| 2026-04-12 21:26 | 47.06562 | -6.48326 | 29999 ft | 450 kts | 272° |
| 2026-04-12 21:26 | 47.06064 | -6.62003 | 29981 ft | 446 kts | 274° |
| 2026-04-12 21:27 | 47.05713 | -6.71065 | 29991 ft | 443 kts | 274° |
| 2026-04-12 21:27 | 47.05330 | -6.80090 | 29996 ft | 442 kts | 274° |
| 2026-04-12 21:28 | 47.04960 | -6.89083 | 29994 ft | 442 kts | 274° |
| 2026-04-12 21:28 | 47.04601 | -6.98036 | 29988 ft | 442 kts | 274° |
| 2026-04-12 21:29 | 47.04235 | -7.06956 | 29990 ft | 434 kts | 276° |
| 2026-04-12 21:29 | 47.03932 | -7.14300 | 29996 ft | 433 kts | 276° |
| 2026-04-12 21:30 | 47.03506 | -7.24566 | 30002 ft | 433 kts | 276° |
| 2026-04-12 21:30 | 47.03191 | -7.31947 | 30001 ft | 433 kts | 276° |
| 2026-04-12 21:31 | 47.02808 | -7.40759 | 29959 ft | 433 kts | 277° |
| 2026-04-12 21:31 | 47.02417 | -7.49471 | 29997 ft | 425 kts | 277° |
| 2026-04-12 21:32 | 47.02032 | -7.58063 | 30004 ft | 425 kts | 277° |
| 2026-04-12 21:32 | 47.01638 | -7.66744 | 30005 ft | 425 kts | 277° |
| 2026-04-12 21:33 | 47.01236 | -7.75387 | 30007 ft | 425 kts | 277° |
| 2026-04-12 21:33 | 47.00830 | -7.83978 | 29991 ft | 424 kts | 278° |
| 2026-04-12 21:34 | 47.00406 | -7.92583 | 29994 ft | 423 kts | 277° |
| 2026-04-12 21:34 | 47.00013 | -8.01154 | 29998 ft | 419 kts | 280° |
| 2026-04-12 21:35 | 46.99965 | -8.09660 | 30001 ft | 416 kts | 282° |
| 2026-04-12 21:35 | 47.00010 | -8.18143 | 29999 ft | 416 kts | 282° |
| 2026-04-12 21:36 | 47.00042 | -8.26559 | 29996 ft | 416 kts | 282° |
| 2026-04-12 21:36 | 47.00057 | -8.35077 | 30002 ft | 416 kts | 282° |
| 2026-04-12 21:37 | 47.00061 | -8.43550 | 29999 ft | 416 kts | 281° |
| 2026-04-12 21:37 | 47.00058 | -8.52044 | 29998 ft | 416 kts | 281° |
| 2026-04-12 21:38 | 47.00049 | -8.60486 | 30000 ft | 416 kts | 281° |
| 2026-04-12 21:38 | 47.00017 | -8.68990 | 30000 ft | 419 kts | 279° |
| 2026-04-12 21:39 | 46.99716 | -8.73311 | 30000 ft | 433 kts | 271° |
| 2026-04-12 21:39 | 46.98902 | -8.77631 | 30003 ft | 448 kts | 263° |
| 2026-04-12 21:39 | 46.96480 | -8.86137 | 30001 ft | 458 kts | 259° |
| 2026-04-12 21:40 | 46.93895 | -8.94663 | 30004 ft | 457 kts | 260° |
| 2026-04-12 21:40 | 46.91414 | -9.03206 | 29970 ft | 455 kts | 261° |
| 2026-04-12 21:41 | 46.88989 | -9.11741 | 30002 ft | 454 kts | 261° |
| 2026-04-12 21:41 | 46.86577 | -9.20250 | 30003 ft | 455 kts | 261° |
| 2026-04-12 21:42 | 46.84148 | -9.28779 | 30008 ft | 455 kts | 261° |
| 2026-04-12 21:42 | 46.81708 | -9.37309 | 30015 ft | 455 kts | 261° |
| 2026-04-12 21:43 | 46.79256 | -9.45851 | 30003 ft | 456 kts | 261° |
| 2026-04-12 21:43 | 46.76798 | -9.54389 | 30017 ft | 457 kts | 260° |
| 2026-04-12 21:44 | 46.74335 | -9.62903 | 30017 ft | 457 kts | 260° |
| 2026-04-12 21:44 | 46.71862 | -9.71422 | 30012 ft | 457 kts | 260° |
| 2026-04-12 21:45 | 46.69369 | -9.79983 | 29984 ft | 457 kts | 259° |
| 2026-04-12 21:45 | 46.66868 | -9.88506 | 30016 ft | 458 kts | 259° |
| 2026-04-12 21:46 | 46.64326 | -9.97032 | 30019 ft | 458 kts | 259° |
| 2026-04-12 21:46 | 46.61804 | -10.05535 | 30021 ft | 458 kts | 259° |
| 2026-04-12 21:47 | 46.59299 | -10.14008 | 30021 ft | 458 kts | 259° |
| 2026-04-12 21:47 | 46.56777 | -10.22523 | 30018 ft | 457 kts | 259° |
| 2026-04-12 21:48 | 46.54256 | -10.31006 | 30021 ft | 457 kts | 259° |
| 2026-04-12 21:48 | 46.51729 | -10.39479 | 30025 ft | 457 kts | 258° |
| 2026-04-12 21:49 | 46.49191 | -10.47958 | 30023 ft | 458 kts | 258° |
| 2026-04-12 21:49 | 46.46642 | -10.56450 | 30016 ft | 459 kts | 258° |
| 2026-04-12 21:50 | 46.44092 | -10.64910 | 30025 ft | 459 kts | 258° |
| 2026-04-12 21:50 | 46.41527 | -10.73388 | 30026 ft | 459 kts | 258° |
| 2026-04-12 21:51 | 46.38953 | -10.81869 | 30029 ft | 460 kts | 258° |
| 2026-04-12 21:51 | 46.36372 | -10.90349 | 30005 ft | 459 kts | 257° |
| 2026-04-12 21:52 | 46.33791 | -10.98770 | 30028 ft | 460 kts | 257° |
| 2026-04-12 21:52 | 46.31162 | -11.07208 | 30030 ft | 460 kts | 257° |
| 2026-04-12 21:53 | 46.28550 | -11.15634 | 30029 ft | 460 kts | 257° |
| 2026-04-12 21:53 | 46.25941 | -11.24077 | 30030 ft | 460 kts | 257° |
| 2026-04-12 21:54 | 46.23321 | -11.32544 | 30041 ft | 461 kts | 256° |
| 2026-04-12 21:54 | 46.20708 | -11.40957 | 30038 ft | 461 kts | 256° |
| 2026-04-12 21:55 | 46.18077 | -11.49397 | 30045 ft | 461 kts | 256° |
| 2026-04-12 21:55 | 46.15433 | -11.57853 | 30031 ft | 461 kts | 256° |
| 2026-04-12 21:56 | 46.12787 | -11.66289 | 30038 ft | 463 kts | 256° |
| 2026-04-12 21:56 | 46.10135 | -11.74714 | 30042 ft | 463 kts | 256° |
| 2026-04-12 21:57 | 46.07464 | -11.83166 | 30042 ft | 463 kts | 255° |
| 2026-04-12 21:57 | 46.04779 | -11.91638 | 30042 ft | 463 kts | 255° |
| 2026-04-12 21:58 | 46.02106 | -12.00044 | 30037 ft | 463 kts | 255° |
| 2026-04-12 21:58 | 45.99409 | -12.08467 | 30052 ft | 464 kts | 255° |
| 2026-04-12 21:59 | 45.96676 | -12.16879 | 30053 ft | 464 kts | 255° |
| 2026-04-12 21:59 | 45.93964 | -12.25265 | 30053 ft | 464 kts | 255° |
| 2026-04-12 22:00 | 45.91247 | -12.33689 | 30055 ft | 464 kts | 255° |
| 2026-04-12 22:00 | 45.88547 | -12.42048 | 30047 ft | 465 kts | 255° |
| 2026-04-12 22:01 | 45.85817 | -12.50475 | 30053 ft | 466 kts | 255° |
| 2026-04-12 22:01 | 45.83076 | -12.58897 | 30056 ft | 466 kts | 255° |
| 2026-04-12 22:02 | 45.80320 | -12.67339 | 30055 ft | 466 kts | 255° |
| 2026-04-12 22:02 | 45.77575 | -12.75712 | 30063 ft | 462 kts | 255° |
| 2026-04-12 22:03 | 45.74847 | -12.84019 | 30054 ft | 462 kts | 255° |
| 2026-04-12 22:03 | 45.72094 | -12.92349 | 30070 ft | 463 kts | 255° |
| 2026-04-12 22:04 | 45.69297 | -13.00617 | 30056 ft | 463 kts | 255° |
| 2026-04-12 22:04 | 45.66484 | -13.08911 | 30060 ft | 460 kts | 255° |
| 2026-04-12 22:05 | 45.63710 | -13.17115 | 30063 ft | 460 kts | 255° |
| 2026-04-12 22:05 | 45.60926 | -13.25343 | 30068 ft | 460 kts | 255° |
| 2026-04-12 22:06 | 45.58132 | -13.33573 | 30055 ft | 460 kts | 255° |
| 2026-04-12 22:06 | 45.55325 | -13.41815 | 30061 ft | 462 kts | 254° |
| 2026-04-12 22:07 | 45.52509 | -13.50052 | 30072 ft | 462 kts | 254° |
| 2026-04-12 22:07 | 45.49697 | -13.58252 | 30069 ft | 462 kts | 254° |
| 2026-04-12 22:08 | 45.46880 | -13.66442 | 30072 ft | 462 kts | 254° |
| 2026-04-12 22:08 | 45.44042 | -13.74668 | 30064 ft | 462 kts | 254° |
| 2026-04-12 22:09 | 45.41192 | -13.82903 | 30071 ft | 462 kts | 254° |
| 2026-04-12 22:09 | 45.38355 | -13.91075 | 30078 ft | 462 kts | 254° |
| 2026-04-12 22:10 | 45.35496 | -13.99261 | 30077 ft | 463 kts | 253° |
| 2026-04-12 22:10 | 45.32606 | -14.07420 | 30056 ft | 462 kts | 253° |
| 2026-04-12 22:11 | 45.29717 | -14.15610 | 30075 ft | 462 kts | 253° |
| 2026-04-12 22:11 | 45.26842 | -14.23784 | 30082 ft | 463 kts | 253° |
| 2026-04-12 22:12 | 45.23963 | -14.31954 | 30081 ft | 463 kts | 253° |
| 2026-04-12 22:12 | 45.21089 | -14.40086 | 30055 ft | 463 kts | 253° |
| 2026-04-12 22:13 | 45.18190 | -14.48260 | 30081 ft | 464 kts | 253° |
| 2026-04-12 22:13 | 45.15279 | -14.56443 | 30086 ft | 464 kts | 253° |
| 2026-04-12 22:14 | 45.12857 | -14.63232 | 30086 ft | 464 kts | 253° |
| 2026-04-12 22:14 | 45.09931 | -14.71413 | 30085 ft | 464 kts | 253° |
| 2026-04-12 22:15 | 45.07024 | -14.79515 | 30085 ft | 464 kts | 252° |
| 2026-04-12 22:15 | 45.04092 | -14.87661 | 30085 ft | 464 kts | 252° |
| 2026-04-12 22:16 | 45.01151 | -14.95812 | 30090 ft | 464 kts | 252° |
| 2026-04-12 22:16 | 44.98218 | -15.03895 | 30089 ft | 465 kts | 252° |
| 2026-04-12 22:17 | 44.95230 | -15.12008 | 30086 ft | 464 kts | 251° |
| 2026-04-12 22:17 | 44.92284 | -15.20042 | 30088 ft | 463 kts | 251° |
| 2026-04-12 22:18 | 44.89326 | -15.28131 | 30092 ft | 463 kts | 251° |
| 2026-04-12 22:18 | 44.86365 | -15.36216 | 30091 ft | 463 kts | 251° |
| 2026-04-12 22:19 | 44.83397 | -15.44294 | 30090 ft | 462 kts | 251° |
| 2026-04-12 22:19 | 44.80451 | -15.52286 | 30094 ft | 462 kts | 251° |
| 2026-04-12 22:20 | 44.77487 | -15.60306 | 30101 ft | 461 kts | 251° |
| 2026-04-12 22:20 | 44.74517 | -15.68319 | 30099 ft | 461 kts | 251° |
| 2026-04-12 22:21 | 44.71560 | -15.76275 | 30099 ft | 462 kts | 251° |
| 2026-04-12 22:21 | 44.68575 | -15.84281 | 30102 ft | 462 kts | 251° |
| 2026-04-12 22:22 | 44.65580 | -15.92289 | 30102 ft | 462 kts | 251° |
| 2026-04-12 22:22 | 44.62578 | -16.00297 | 30102 ft | 463 kts | 251° |
| 2026-04-12 22:23 | 44.59580 | -16.08244 | 30095 ft | 462 kts | 250° |
| 2026-04-12 22:23 | 44.56542 | -16.16189 | 30102 ft | 462 kts | 250° |
| 2026-04-12 22:24 | 44.53515 | -16.24140 | 30099 ft | 461 kts | 251° |
| 2026-04-12 22:24 | 44.50505 | -16.32067 | 30105 ft | 461 kts | 251° |
| 2026-04-12 22:25 | 44.47498 | -16.39975 | 30095 ft | 462 kts | 250° |
| 2026-04-12 22:25 | 44.44463 | -16.47931 | 30101 ft | 462 kts | 250° |
| 2026-04-12 22:26 | 44.41421 | -16.55881 | 30105 ft | 462 kts | 250° |
| 2026-04-12 22:26 | 44.38392 | -16.63773 | 30107 ft | 462 kts | 250° |
| 2026-04-12 22:27 | 44.35361 | -16.71649 | 30098 ft | 463 kts | 250° |
| 2026-04-12 22:27 | 44.32304 | -16.79573 | 30098 ft | 463 kts | 250° |
| 2026-04-12 22:28 | 44.29226 | -16.87525 | 30105 ft | 464 kts | 250° |
| 2026-04-12 22:28 | 44.26150 | -16.95447 | 30111 ft | 464 kts | 250° |
| 2026-04-12 22:29 | 44.23090 | -17.03310 | 30103 ft | 464 kts | 250° |
| 2026-04-12 22:29 | 44.19993 | -17.11215 | 30108 ft | 464 kts | 250° |
| 2026-04-12 22:30 | 44.16879 | -17.19071 | 30099 ft | 464 kts | 250° |
| 2026-04-12 22:30 | 44.13768 | -17.26952 | 30115 ft | 464 kts | 250° |
| 2026-04-12 22:31 | 44.10666 | -17.34825 | 30100 ft | 463 kts | 250° |
| 2026-04-12 22:31 | 44.07560 | -17.42696 | 30108 ft | 463 kts | 250° |
| 2026-04-12 22:32 | 44.04442 | -17.50575 | 30105 ft | 463 kts | 250° |
| 2026-04-12 22:32 | 44.01348 | -17.58370 | 30086 ft | 463 kts | 250° |
| 2026-04-12 22:33 | 43.98222 | -17.66226 | 30104 ft | 465 kts | 250° |
| 2026-04-12 22:33 | 43.95097 | -17.74054 | 30111 ft | 465 kts | 250° |
| 2026-04-12 22:34 | 43.91948 | -17.81919 | 30105 ft | 465 kts | 250° |
| 2026-04-12 22:34 | 43.88792 | -17.89781 | 30106 ft | 465 kts | 250° |
| 2026-04-12 22:35 | 43.85663 | -17.97554 | 30102 ft | 465 kts | 250° |
| 2026-04-12 22:35 | 43.82503 | -18.05382 | 30110 ft | 464 kts | 249° |
| 2026-04-12 22:36 | 43.79331 | -18.13182 | 30104 ft | 465 kts | 249° |
| 2026-04-12 22:36 | 43.76134 | -18.20970 | 30104 ft | 465 kts | 249° |
| 2026-04-12 22:37 | 43.72971 | -18.28703 | 30111 ft | 463 kts | 249° |
| 2026-04-12 22:37 | 43.69802 | -18.36465 | 30109 ft | 463 kts | 249° |
| 2026-04-12 22:38 | 43.66647 | -18.44183 | 30099 ft | 464 kts | 249° |
| 2026-04-12 22:38 | 43.63466 | -18.51936 | 30103 ft | 464 kts | 249° |
| 2026-04-12 22:39 | 43.60275 | -18.59692 | 30102 ft | 463 kts | 248° |
| 2026-04-12 22:40 | 43.55509 | -18.71237 | 30103 ft | 462 kts | 248° |
| 2026-04-12 22:40 | 43.52319 | -18.78938 | 30104 ft | 462 kts | 248° |
| 2026-04-12 22:41 | 43.49138 | -18.86598 | 30112 ft | 462 kts | 248° |
| 2026-04-12 22:41 | 43.45939 | -18.94281 | 30105 ft | 462 kts | 248° |
| 2026-04-12 22:42 | 43.42736 | -19.01953 | 30103 ft | 462 kts | 248° |
| 2026-04-12 22:42 | 43.39535 | -19.09594 | 30104 ft | 463 kts | 248° |
| 2026-04-12 22:43 | 43.36279 | -19.17265 | 30098 ft | 463 kts | 247° |
| 2026-04-12 22:43 | 43.33042 | -19.24902 | 30101 ft | 465 kts | 247° |
| 2026-04-12 22:44 | 43.29793 | -19.32586 | 30105 ft | 465 kts | 247° |
| 2026-04-12 22:44 | 43.26542 | -19.40269 | 30103 ft | 465 kts | 247° |
| 2026-04-12 22:45 | 43.23281 | -19.47959 | 30095 ft | 466 kts | 247° |
| 2026-04-12 22:45 | 43.20011 | -19.55648 | 30102 ft | 466 kts | 247° |
| 2026-04-12 22:46 | 43.16754 | -19.63283 | 30100 ft | 466 kts | 247° |
| 2026-04-12 22:46 | 43.13480 | -19.70939 | 30099 ft | 466 kts | 247° |
| 2026-04-12 22:47 | 43.10204 | -19.78579 | 30102 ft | 466 kts | 247° |
| 2026-04-12 22:47 | 43.06520 | -19.85943 | 30098 ft | 475 kts | 237° |
| 2026-04-12 22:48 | 43.02055 | -19.92699 | 30099 ft | 479 kts | 234° |
| 2026-04-12 22:48 | 42.97510 | -19.99307 | 30107 ft | 479 kts | 234° |
| 2026-04-12 22:49 | 42.92993 | -20.05993 | 30108 ft | 478 kts | 235° |
| 2026-04-12 22:49 | 42.88506 | -20.12701 | 30112 ft | 478 kts | 235° |
| 2026-04-12 22:50 | 42.84028 | -20.19395 | 30116 ft | 476 kts | 235° |
| 2026-04-12 22:50 | 42.79584 | -20.26020 | 30100 ft | 476 kts | 235° |
| 2026-04-12 22:51 | 42.75117 | -20.32663 | 30107 ft | 476 kts | 235° |
| 2026-04-12 22:51 | 42.70629 | -20.39320 | 30120 ft | 476 kts | 234° |
| 2026-04-12 22:52 | 42.66164 | -20.45927 | 30122 ft | 476 kts | 234° |
| 2026-04-12 22:52 | 42.61667 | -20.52565 | 30116 ft | 475 kts | 234° |
| 2026-04-12 22:53 | 42.57217 | -20.59120 | 30124 ft | 475 kts | 234° |
| 2026-04-12 22:53 | 42.52731 | -20.65713 | 30130 ft | 475 kts | 234° |
| 2026-04-12 22:54 | 42.48220 | -20.72282 | 30124 ft | 476 kts | 234° |
| 2026-04-12 22:54 | 42.43723 | -20.78822 | 30135 ft | 476 kts | 234° |
| 2026-04-12 22:55 | 42.39219 | -20.85384 | 30128 ft | 475 kts | 234° |
| 2026-04-12 22:55 | 42.34696 | -20.91970 | 30140 ft | 475 kts | 234° |
| 2026-04-12 22:56 | 42.30218 | -20.98479 | 30139 ft | 475 kts | 234° |
| 2026-04-12 22:56 | 42.25715 | -21.05008 | 30140 ft | 475 kts | 234° |
| 2026-04-12 22:57 | 42.21196 | -21.11547 | 30149 ft | 476 kts | 234° |
| 2026-04-12 22:57 | 42.16676 | -21.18070 | 30142 ft | 475 kts | 234° |
| 2026-04-12 22:58 | 42.12185 | -21.24536 | 30152 ft | 475 kts | 234° |
| 2026-04-12 22:58 | 42.07659 | -21.31038 | 30151 ft | 475 kts | 234° |
| 2026-04-12 22:59 | 42.03885 | -21.36449 | 30148 ft | 475 kts | 234° |
| 2026-04-12 22:59 | 41.98611 | -21.43994 | 30159 ft | 475 kts | 234° |
| 2026-04-12 23:00 | 41.94812 | -21.49412 | 30144 ft | 476 kts | 233° |
| 2026-04-12 23:00 | 41.90269 | -21.55832 | 30167 ft | 476 kts | 233° |
| 2026-04-12 23:01 | 41.85709 | -21.62283 | 30168 ft | 476 kts | 233° |
| 2026-04-12 23:01 | 41.81170 | -21.68713 | 30171 ft | 476 kts | 233° |
| 2026-04-12 23:02 | 41.76612 | -21.75165 | 30171 ft | 476 kts | 233° |
| 2026-04-12 23:02 | 41.72037 | -21.81625 | 30151 ft | 476 kts | 233° |
| 2026-04-12 23:03 | 41.67498 | -21.88020 | 30173 ft | 476 kts | 232° |
| 2026-04-12 23:03 | 41.62926 | -21.94446 | 30175 ft | 476 kts | 232° |
| 2026-04-12 23:04 | 41.58338 | -22.00881 | 30181 ft | 476 kts | 232° |
| 2026-04-12 23:04 | 41.53789 | -22.07247 | 30181 ft | 476 kts | 232° |
| 2026-04-12 23:05 | 41.49211 | -22.13640 | 30181 ft | 476 kts | 232° |
| 2026-04-12 23:05 | 41.44630 | -22.20023 | 30186 ft | 476 kts | 232° |
| 2026-04-12 23:06 | 41.40047 | -22.26394 | 30184 ft | 477 kts | 232° |
| 2026-04-12 23:06 | 41.35437 | -22.32764 | 30195 ft | 477 kts | 232° |
| 2026-04-12 23:07 | 41.30824 | -22.39104 | 30192 ft | 477 kts | 232° |
| 2026-04-12 23:07 | 41.26205 | -22.45467 | 30198 ft | 477 kts | 232° |
| 2026-04-12 23:08 | 41.21602 | -22.51809 | 30195 ft | 476 kts | 231° |
| 2026-04-12 23:08 | 41.17024 | -22.58107 | 30195 ft | 475 kts | 231° |
| 2026-04-12 23:09 | 41.12432 | -22.64410 | 30202 ft | 476 kts | 231° |
| 2026-04-12 23:09 | 41.05526 | -22.73861 | 30208 ft | 476 kts | 231° |
| 2026-04-12 23:10 | 41.00896 | -22.80181 | 30215 ft | 476 kts | 231° |
| 2026-04-12 23:10 | 40.96304 | -22.86435 | 30207 ft | 476 kts | 231° |
| 2026-04-12 23:11 | 40.91663 | -22.92743 | 30216 ft | 476 kts | 231° |
| 2026-04-12 23:11 | 40.87061 | -22.98983 | 30204 ft | 476 kts | 231° |
| 2026-04-12 23:12 | 40.82410 | -23.05278 | 30216 ft | 477 kts | 231° |
| 2026-04-12 23:12 | 40.77773 | -23.11517 | 30208 ft | 477 kts | 230° |
| 2026-04-12 23:13 | 40.73110 | -23.17755 | 30221 ft | 478 kts | 230° |
| 2026-04-12 23:13 | 40.68449 | -23.24006 | 30232 ft | 478 kts | 230° |
| 2026-04-12 23:14 | 40.63784 | -23.30264 | 30227 ft | 478 kts | 230° |
| 2026-04-12 23:14 | 40.59129 | -23.36498 | 30230 ft | 478 kts | 230° |
| 2026-04-12 23:15 | 40.54461 | -23.42736 | 30234 ft | 478 kts | 230° |
| 2026-04-12 23:15 | 40.49781 | -23.48976 | 30236 ft | 479 kts | 230° |
| 2026-04-12 23:16 | 40.45125 | -23.55170 | 30232 ft | 479 kts | 230° |
| 2026-04-12 23:16 | 40.40441 | -23.61388 | 30232 ft | 479 kts | 230° |
| 2026-04-12 23:17 | 40.35751 | -23.67601 | 30240 ft | 479 kts | 230° |
| 2026-04-12 23:17 | 40.31051 | -23.73815 | 30240 ft | 479 kts | 230° |
| 2026-04-12 23:18 | 40.26349 | -23.80018 | 30239 ft | 479 kts | 230° |
| 2026-04-12 23:18 | 40.21674 | -23.86171 | 30246 ft | 479 kts | 229° |
| 2026-04-12 23:19 | 40.16944 | -23.92341 | 30246 ft | 479 kts | 229° |
| 2026-04-12 23:19 | 40.12249 | -23.98467 | 30251 ft | 479 kts | 229° |
| 2026-04-12 23:20 | 40.07533 | -24.04631 | 30251 ft | 479 kts | 229° |
| 2026-04-12 23:20 | 40.02814 | -24.10792 | 30250 ft | 479 kts | 229° |
| 2026-04-12 23:21 | 39.98113 | -24.16919 | 30255 ft | 480 kts | 229° |
| 2026-04-12 23:21 | 39.93386 | -24.23065 | 30256 ft | 480 kts | 229° |
| 2026-04-12 23:22 | 39.88644 | -24.29215 | 30259 ft | 480 kts | 229° |
| 2026-04-12 23:22 | 39.83907 | -24.35349 | 30259 ft | 480 kts | 229° |
| 2026-04-12 23:23 | 39.79199 | -24.41432 | 30253 ft | 480 kts | 229° |
| 2026-04-12 23:23 | 39.74455 | -24.47550 | 30268 ft | 480 kts | 229° |
| 2026-04-12 23:24 | 39.69705 | -24.53662 | 30264 ft | 481 kts | 229° |
| 2026-04-12 23:24 | 39.64966 | -24.59748 | 30264 ft | 481 kts | 229° |
| 2026-04-12 23:25 | 39.60169 | -24.65873 | 30272 ft | 481 kts | 229° |
| 2026-04-12 23:25 | 39.55413 | -24.71915 | 30268 ft | 481 kts | 229° |
| 2026-04-12 23:26 | 39.50643 | -24.77989 | 30279 ft | 481 kts | 229° |
| 2026-04-12 23:26 | 39.45867 | -24.84071 | 30280 ft | 480 kts | 229° |
| 2026-04-12 23:27 | 39.41111 | -24.90118 | 30273 ft | 481 kts | 228° |
| 2026-04-12 23:27 | 39.36329 | -24.96184 | 30277 ft | 481 kts | 228° |
| 2026-04-12 23:28 | 39.31533 | -25.02254 | 30279 ft | 481 kts | 228° |
| 2026-04-12 23:28 | 39.26755 | -25.08290 | 30281 ft | 481 kts | 228° |
| 2026-04-12 23:29 | 39.21969 | -25.14324 | 30285 ft | 481 kts | 228° |
| 2026-04-12 23:29 | 39.17203 | -25.20321 | 30289 ft | 481 kts | 228° |
| 2026-04-12 23:30 | 39.12408 | -25.26342 | 30285 ft | 481 kts | 228° |
| 2026-04-12 23:30 | 39.07605 | -25.32362 | 30293 ft | 481 kts | 228° |
| 2026-04-12 23:31 | 39.02825 | -25.38336 | 30292 ft | 481 kts | 228° |
| 2026-04-12 23:31 | 38.98004 | -25.44314 | 30292 ft | 481 kts | 228° |
| 2026-04-12 23:32 | 38.93203 | -25.50269 | 30297 ft | 481 kts | 228° |
| 2026-04-12 23:32 | 38.88374 | -25.56268 | 30298 ft | 481 kts | 228° |
| 2026-04-12 23:33 | 38.83578 | -25.62219 | 30300 ft | 482 kts | 228° |
| 2026-04-12 23:33 | 38.78755 | -25.68191 | 30295 ft | 481 kts | 228° |
| 2026-04-12 23:34 | 38.73938 | -25.74145 | 30297 ft | 481 kts | 228° |
| 2026-04-12 23:34 | 38.69112 | -25.80096 | 30303 ft | 481 kts | 228° |
| 2026-04-12 23:35 | 38.64318 | -25.85997 | 30306 ft | 481 kts | 228° |
| 2026-04-12 23:35 | 38.59486 | -25.91934 | 30311 ft | 481 kts | 228° |
| 2026-04-12 23:36 | 38.54656 | -25.97855 | 30300 ft | 480 kts | 227° |
| 2026-04-12 23:36 | 38.49847 | -26.03740 | 30313 ft | 480 kts | 227° |
| 2026-04-12 23:37 | 38.44994 | -26.09666 | 30310 ft | 480 kts | 227° |
| 2026-04-12 23:37 | 38.40173 | -26.15520 | 30308 ft | 480 kts | 227° |
| 2026-04-12 23:38 | 38.35335 | -26.21371 | 30313 ft | 481 kts | 227° |
| 2026-04-12 23:38 | 38.30470 | -26.27265 | 30305 ft | 481 kts | 227° |
| 2026-04-12 23:39 | 38.25649 | -26.33106 | 30305 ft | 481 kts | 227° |
| 2026-04-12 23:39 | 38.20802 | -26.38970 | 30318 ft | 481 kts | 227° |
| 2026-04-12 23:40 | 38.15938 | -26.44841 | 30320 ft | 481 kts | 227° |
| 2026-04-12 23:40 | 38.11074 | -26.50701 | 30322 ft | 481 kts | 227° |
| 2026-04-12 23:41 | 38.06197 | -26.56565 | 30317 ft | 482 kts | 227° |
| 2026-04-12 23:41 | 38.01351 | -26.62381 | 30325 ft | 482 kts | 227° |
| 2026-04-12 23:42 | 37.96472 | -26.68224 | 30318 ft | 481 kts | 226° |
| 2026-04-12 23:43 | 37.89167 | -26.76953 | 30328 ft | 481 kts | 226° |
| 2026-04-12 23:43 | 37.84318 | -26.82733 | 30332 ft | 481 kts | 226° |
| 2026-04-12 23:44 | 37.79436 | -26.88518 | 30334 ft | 481 kts | 226° |
| 2026-04-12 23:44 | 37.75375 | -26.93313 | 30334 ft | 481 kts | 226° |
| 2026-04-12 23:45 | 37.69685 | -27.00043 | 30345 ft | 481 kts | 226° |
| 2026-04-12 23:45 | 37.65623 | -27.04848 | 30316 ft | 481 kts | 226° |
| 2026-04-12 23:46 | 37.60740 | -27.10617 | 30341 ft | 480 kts | 226° |
| 2026-04-12 23:46 | 37.55867 | -27.16362 | 30333 ft | 480 kts | 226° |
| 2026-04-12 23:47 | 37.50997 | -27.22093 | 30332 ft | 480 kts | 226° |
| 2026-04-12 23:47 | 37.46109 | -27.27834 | 30334 ft | 480 kts | 226° |
| 2026-04-12 23:48 | 37.41230 | -27.33553 | 30336 ft | 480 kts | 226° |
| 2026-04-12 23:48 | 37.36335 | -27.39280 | 30336 ft | 480 kts | 226° |
| 2026-04-12 23:49 | 37.31441 | -27.44996 | 30339 ft | 480 kts | 226° |
| 2026-04-12 23:49 | 37.26578 | -27.50664 | 30338 ft | 479 kts | 226° |
| 2026-04-12 23:50 | 37.21681 | -27.56360 | 30335 ft | 479 kts | 226° |
| 2026-04-12 23:50 | 37.16765 | -27.62035 | 30343 ft | 479 kts | 226° |
| 2026-04-12 23:51 | 37.11853 | -27.67706 | 30339 ft | 479 kts | 226° |
| 2026-04-12 23:51 | 37.06981 | -27.73338 | 30343 ft | 479 kts | 226° |
| 2026-04-12 23:52 | 37.02091 | -27.78986 | 30343 ft | 475 kts | 226° |
| 2026-04-12 23:52 | 36.97251 | -27.84565 | 30346 ft | 474 kts | 226° |
| 2026-04-12 23:53 | 36.92388 | -27.90162 | 30348 ft | 474 kts | 226° |
| 2026-04-12 23:53 | 36.87553 | -27.95717 | 30349 ft | 474 kts | 226° |
| 2026-04-12 23:54 | 36.82693 | -28.01290 | 30350 ft | 474 kts | 226° |
| 2026-04-12 23:54 | 36.77826 | -28.06859 | 30351 ft | 474 kts | 226° |
| 2026-04-12 23:55 | 36.72958 | -28.12421 | 30344 ft | 474 kts | 225° |
| 2026-04-12 23:55 | 36.68087 | -28.17975 | 30352 ft | 473 kts | 225° |
| 2026-04-12 23:56 | 36.63251 | -28.23480 | 30354 ft | 473 kts | 225° |
| 2026-04-12 23:56 | 36.58383 | -28.28999 | 30357 ft | 473 kts | 225° |
| 2026-04-12 23:57 | 36.53492 | -28.34513 | 30352 ft | 473 kts | 225° |
| 2026-04-12 23:57 | 36.48611 | -28.40025 | 30357 ft | 473 kts | 225° |
| 2026-04-12 23:58 | 36.43754 | -28.45514 | 30354 ft | 474 kts | 225° |
| 2026-04-12 23:58 | 36.38860 | -28.51038 | 30360 ft | 476 kts | 225° |
| 2026-04-12 23:59 | 36.33932 | -28.56587 | 30353 ft | 477 kts | 225° |
| 2026-04-12 23:59 | 36.29022 | -28.62106 | 30356 ft | 476 kts | 225° |
| 2026-04-13 00:00 | 36.24133 | -28.67591 | 30346 ft | 476 kts | 225° |
| 2026-04-13 00:00 | 36.19211 | -28.73105 | 30360 ft | 477 kts | 225° |
| 2026-04-13 00:01 | 36.14281 | -28.78617 | 30357 ft | 477 kts | 225° |
| 2026-04-13 00:01 | 36.09373 | -28.84097 | 30365 ft | 479 kts | 225° |
| 2026-04-13 00:02 | 36.04418 | -28.89617 | 30356 ft | 479 kts | 225° |
| 2026-04-13 00:02 | 35.99452 | -28.95140 | 30364 ft | 479 kts | 225° |
| 2026-04-13 00:03 | 35.94511 | -29.00598 | 30371 ft | 478 kts | 224° |
| 2026-04-13 00:03 | 35.89548 | -29.06074 | 30348 ft | 478 kts | 224° |
| 2026-04-13 00:04 | 35.84587 | -29.11557 | 30354 ft | 478 kts | 224° |
| 2026-04-13 00:04 | 35.79652 | -29.17007 | 30362 ft | 479 kts | 224° |
| 2026-04-13 00:05 | 35.74669 | -29.22501 | 30362 ft | 479 kts | 224° |
| 2026-04-13 00:05 | 35.69686 | -29.27986 | 30361 ft | 480 kts | 224° |
| 2026-04-13 00:06 | 35.64722 | -29.33440 | 30362 ft | 480 kts | 224° |
| 2026-04-13 00:06 | 35.59756 | -29.38885 | 30364 ft | 480 kts | 224° |
| 2026-04-13 00:07 | 35.54770 | -29.44345 | 30365 ft | 480 kts | 224° |
| 2026-04-13 00:07 | 35.49778 | -29.49800 | 30364 ft | 481 kts | 224° |
| 2026-04-13 00:08 | 35.44767 | -29.55267 | 30361 ft | 481 kts | 224° |
| 2026-04-13 00:08 | 35.39787 | -29.60691 | 30365 ft | 481 kts | 224° |
| 2026-04-13 00:09 | 35.34771 | -29.66134 | 30362 ft | 482 kts | 224° |
| 2026-04-13 00:09 | 35.29724 | -29.71580 | 30362 ft | 482 kts | 224° |
| 2026-04-13 00:10 | 35.24726 | -29.76982 | 30365 ft | 482 kts | 224° |
| 2026-04-13 00:10 | 35.19698 | -29.82418 | 30363 ft | 482 kts | 224° |
| 2026-04-13 00:11 | 35.14646 | -29.87875 | 30364 ft | 483 kts | 223° |
| 2026-04-13 00:11 | 35.09598 | -29.93297 | 30364 ft | 484 kts | 222° |
| 2026-04-13 00:12 | 35.03947 | -29.97679 | 30366 ft | 489 kts | 205° |
| 2026-04-13 00:12 | 34.97486 | -30.00426 | 30365 ft | 491 kts | 199° |
| 2026-04-13 00:13 | 34.90963 | -30.02914 | 30364 ft | 492 kts | 200° |
| 2026-04-13 00:13 | 34.84479 | -30.05563 | 30367 ft | 492 kts | 201° |
| 2026-04-13 00:14 | 34.78007 | -30.08308 | 30367 ft | 492 kts | 201° |
| 2026-04-13 00:14 | 34.71576 | -30.11049 | 30365 ft | 492 kts | 201° |
| 2026-04-13 00:15 | 34.65127 | -30.13786 | 30363 ft | 489 kts | 201° |
| 2026-04-13 00:15 | 34.58712 | -30.16501 | 30367 ft | 488 kts | 201° |
| 2026-04-13 00:16 | 34.52338 | -30.19193 | 30364 ft | 488 kts | 201° |
| 2026-04-13 00:16 | 34.45908 | -30.21904 | 30364 ft | 488 kts | 201° |
| 2026-04-13 00:17 | 34.39494 | -30.24605 | 30369 ft | 488 kts | 201° |
| 2026-04-13 00:17 | 34.33060 | -30.27309 | 30367 ft | 488 kts | 201° |
| 2026-04-13 00:18 | 34.26669 | -30.29990 | 30367 ft | 488 kts | 201° |
| 2026-04-13 00:18 | 34.20237 | -30.32673 | 30367 ft | 488 kts | 201° |
| 2026-04-13 00:19 | 34.13807 | -30.35355 | 30366 ft | 488 kts | 201° |
| 2026-04-13 00:19 | 34.07425 | -30.38019 | 30367 ft | 488 kts | 201° |
| 2026-04-13 00:20 | 34.00986 | -30.40704 | 30366 ft | 488 kts | 201° |
| 2026-04-13 00:20 | 33.94564 | -30.43377 | 30367 ft | 488 kts | 201° |
| 2026-04-13 00:21 | 33.88176 | -30.46032 | 30366 ft | 488 kts | 201° |
| 2026-04-13 00:21 | 33.81736 | -30.48704 | 30367 ft | 488 kts | 201° |
| 2026-04-13 00:22 | 33.75333 | -30.51356 | 30367 ft | 488 kts | 201° |
| 2026-04-13 00:22 | 33.68907 | -30.54014 | 30367 ft | 488 kts | 201° |
| 2026-04-13 00:23 | 33.62499 | -30.56661 | 30368 ft | 488 kts | 201° |
| 2026-04-13 00:23 | 33.56067 | -30.59313 | 30367 ft | 488 kts | 201° |
| 2026-04-13 00:24 | 33.49638 | -30.61959 | 30366 ft | 488 kts | 201° |
| 2026-04-13 00:24 | 33.43237 | -30.64581 | 30367 ft | 488 kts | 200° |
| 2026-04-13 00:25 | 33.36820 | -30.67205 | 30368 ft | 489 kts | 200° |
| 2026-04-13 00:25 | 33.30378 | -30.69842 | 30366 ft | 488 kts | 200° |
| 2026-04-13 00:26 | 33.23944 | -30.72474 | 30366 ft | 488 kts | 200° |
| 2026-04-13 00:26 | 33.17539 | -30.75090 | 30365 ft | 488 kts | 200° |
| 2026-04-13 00:27 | 33.11098 | -30.77717 | 30367 ft | 489 kts | 200° |
| 2026-04-13 00:27 | 33.04645 | -30.80345 | 30367 ft | 489 kts | 200° |
| 2026-04-13 00:28 | 32.98217 | -30.82957 | 30362 ft | 489 kts | 200° |
| 2026-04-13 00:28 | 32.91758 | -30.85579 | 30362 ft | 489 kts | 200° |
| 2026-04-13 00:29 | 32.85318 | -30.88189 | 30362 ft | 489 kts | 200° |
| 2026-04-13 00:29 | 32.78910 | -30.90782 | 30362 ft | 489 kts | 199° |
| 2026-04-13 00:30 | 32.72461 | -30.93387 | 30360 ft | 489 kts | 199° |
| 2026-04-13 00:30 | 32.65999 | -30.95989 | 30362 ft | 489 kts | 199° |
| 2026-04-13 00:31 | 32.60637 | -30.98140 | 30355 ft | 488 kts | 199° |
| 2026-04-13 00:31 | 32.53146 | -31.01148 | 30359 ft | 488 kts | 199° |
| 2026-04-13 00:32 | 32.46715 | -31.03730 | 30359 ft | 488 kts | 199° |
| 2026-04-13 00:32 | 32.41330 | -31.05890 | 30357 ft | 488 kts | 199° |
| 2026-04-13 00:33 | 32.29184 | -31.10752 | 30357 ft | 488 kts | 199° |
| 2026-04-13 00:33 | 32.16379 | -31.15858 | 30358 ft | 488 kts | 199° |
| 2026-04-13 00:34 | 32.03481 | -31.20991 | 30356 ft | 488 kts | 199° |
| 2026-04-13 00:34 | 31.90654 | -31.26078 | 30354 ft | 488 kts | 198° |
| 2026-04-13 00:35 | 31.77766 | -31.31159 | 30351 ft | 488 kts | 198° |
| 2026-04-13 00:35 | 31.64908 | -31.36227 | 30351 ft | 487 kts | 198° |
| 2026-04-13 00:36 | 31.52067 | -31.41276 | 30350 ft | 486 kts | 198° |
| 2026-04-13 00:36 | 31.39171 | -31.46331 | 30353 ft | 487 kts | 198° |
| 2026-04-13 00:37 | 31.19928 | -31.53847 | 30342 ft | 487 kts | 198° |
| 2026-04-13 00:37 | 31.07090 | -31.58837 | 30340 ft | 487 kts | 198° |
| 2026-04-13 00:38 | 30.94337 | -31.63776 | 30344 ft | 486 kts | 198° |
| 2026-04-13 00:38 | 30.81418 | -31.68775 | 30337 ft | 487 kts | 198° |
| 2026-04-13 00:39 | 30.68563 | -31.73736 | 30341 ft | 487 kts | 197° |
| 2026-04-13 00:39 | 30.55776 | -31.78656 | 30334 ft | 487 kts | 198° |
| 2026-04-13 00:40 | 30.42755 | -31.83652 | 30334 ft | 488 kts | 197° |
| 2026-04-13 00:40 | 30.29888 | -31.88572 | 30332 ft | 489 kts | 197° |
| 2026-04-13 00:41 | 30.17015 | -31.93473 | 30327 ft | 490 kts | 197° |
| 2026-04-13 00:41 | 30.04015 | -31.98416 | 30326 ft | 490 kts | 197° |
| 2026-04-13 00:42 | 29.91227 | -32.03591 | 30324 ft | 490 kts | 198° |
| 2026-04-13 00:42 | 29.78469 | -32.08972 | 30321 ft | 489 kts | 198° |
| 2026-04-13 00:43 | 29.65890 | -32.14235 | 30324 ft | 488 kts | 198° |
| 2026-04-13 00:43 | 29.53108 | -32.19563 | 30324 ft | 488 kts | 198° |
| 2026-04-13 00:44 | 29.34007 | -32.27502 | 30318 ft | 489 kts | 197° |
| 2026-04-13 00:44 | 29.27617 | -32.30149 | 30872 ft | 491 kts | 197° |
| 2026-04-13 00:45 | 29.21156 | -32.32822 | 31464 ft | 491 kts | 197° |
| 2026-04-13 00:45 | 29.14797 | -32.35442 | 32054 ft | 490 kts | 197° |
| 2026-04-13 00:45 | 29.08339 | -32.38104 | 32591 ft | 490 kts | 197° |
| 2026-04-13 00:45 | 29.01978 | -32.40726 | 33089 ft | 491 kts | 197° |
| 2026-04-13 00:46 | 28.95489 | -32.43398 | 33571 ft | 491 kts | 197° |
| 2026-04-13 00:46 | 28.89095 | -32.46027 | 34020 ft | 491 kts | 197° |
| 2026-04-13 00:46 | 28.82703 | -32.48652 | 34296 ft | 491 kts | 197° |
| 2026-04-13 00:47 | 28.69853 | -32.53919 | 34308 ft | 490 kts | 197° |
| 2026-04-13 00:47 | 28.57034 | -32.59159 | 34311 ft | 490 kts | 197° |
| 2026-04-13 00:48 | 28.44227 | -32.64381 | 34301 ft | 486 kts | 197° |
| 2026-04-13 00:48 | 28.31498 | -32.69542 | 34300 ft | 485 kts | 197° |
| 2026-04-13 00:49 | 28.18846 | -32.74673 | 34300 ft | 484 kts | 197° |
| 2026-04-13 00:49 | 28.06140 | -32.79815 | 34297 ft | 484 kts | 197° |
| 2026-04-13 00:50 | 27.93423 | -32.84947 | 34293 ft | 484 kts | 197° |
| 2026-04-13 00:50 | 27.80719 | -32.90061 | 34289 ft | 484 kts | 197° |
| 2026-04-13 00:51 | 27.68100 | -32.95128 | 34286 ft | 482 kts | 198° |
| 2026-04-13 00:51 | 27.55457 | -33.00181 | 34287 ft | 482 kts | 197° |
| 2026-04-13 00:52 | 27.42764 | -33.05250 | 34287 ft | 482 kts | 197° |
| 2026-04-13 00:52 | 27.30116 | -33.10292 | 34282 ft | 482 kts | 197° |
| 2026-04-13 00:53 | 27.17517 | -33.15302 | 34280 ft | 482 kts | 197° |
| 2026-04-13 00:53 | 27.04869 | -33.20320 | 34273 ft | 481 kts | 197° |
| 2026-04-13 00:54 | 26.92237 | -33.25318 | 34270 ft | 482 kts | 197° |
| 2026-04-13 00:54 | 26.79554 | -33.30316 | 34267 ft | 482 kts | 197° |
| 2026-04-13 00:55 | 26.66879 | -33.35303 | 34265 ft | 482 kts | 197° |
| 2026-04-13 00:55 | 26.54195 | -33.40287 | 34261 ft | 483 kts | 196° |
| 2026-04-13 00:56 | 26.41538 | -33.45249 | 34261 ft | 484 kts | 196° |
| 2026-04-13 00:56 | 26.28810 | -33.50227 | 34260 ft | 484 kts | 196° |
| 2026-04-13 00:57 | 26.16058 | -33.55202 | 34256 ft | 484 kts | 196° |
| 2026-04-13 00:57 | 26.03352 | -33.60143 | 34255 ft | 484 kts | 196° |
| 2026-04-13 00:58 | 25.90608 | -33.65083 | 34248 ft | 486 kts | 196° |
| 2026-04-13 00:58 | 25.77923 | -33.69999 | 34250 ft | 486 kts | 196° |
| 2026-04-13 00:59 | 25.65130 | -33.74944 | 34246 ft | 488 kts | 196° |
| 2026-04-13 00:59 | 25.52321 | -33.79885 | 34244 ft | 488 kts | 196° |
| 2026-04-13 01:00 | 25.39495 | -33.84820 | 34244 ft | 489 kts | 196° |
| 2026-04-13 01:00 | 25.26617 | -33.89763 | 34240 ft | 489 kts | 196° |
| 2026-04-13 01:01 | 25.13731 | -33.94688 | 34245 ft | 490 kts | 197° |
| 2026-04-13 01:01 | 25.00925 | -33.99596 | 34223 ft | 490 kts | 198° |
| 2026-04-13 01:02 | 24.88212 | -34.05374 | 34227 ft | 492 kts | 201° |
| 2026-04-13 01:02 | 24.75630 | -34.11259 | 34225 ft | 491 kts | 200° |
| 2026-04-13 01:03 | 24.63086 | -34.17066 | 34221 ft | 491 kts | 201° |
| 2026-04-13 01:03 | 24.50489 | -34.22886 | 34220 ft | 491 kts | 202° |
| 2026-04-13 01:04 | 24.37912 | -34.28687 | 34217 ft | 490 kts | 200° |
| 2026-04-13 01:04 | 24.25311 | -34.34482 | 34213 ft | 487 kts | 202° |
| 2026-04-13 01:05 | 24.12801 | -34.40216 | 34213 ft | 487 kts | 202° |
| 2026-04-13 01:05 | 24.00303 | -34.45940 | 34211 ft | 487 kts | 202° |
| 2026-04-13 01:06 | 23.87849 | -34.51634 | 34205 ft | 483 kts | 204° |
| 2026-04-13 01:06 | 23.75458 | -34.57287 | 34202 ft | 484 kts | 203° |
| 2026-04-13 01:07 | 23.63078 | -34.62921 | 34201 ft | 479 kts | 204° |
| 2026-04-13 01:07 | 23.50760 | -34.68520 | 34201 ft | 478 kts | 205° |
| 2026-04-13 01:08 | 23.38475 | -34.74078 | 34193 ft | 479 kts | 204° |
| 2026-04-13 01:08 | 23.26155 | -34.79650 | 34196 ft | 479 kts | 204° |
| 2026-04-13 01:09 | 23.13846 | -34.85210 | 34192 ft | 479 kts | 204° |
| 2026-04-13 01:09 | 23.01605 | -34.90724 | 34185 ft | 477 kts | 204° |
| 2026-04-13 01:10 | 22.89317 | -34.96249 | 34187 ft | 479 kts | 206° |
| 2026-04-13 01:10 | 22.77006 | -35.01777 | 34183 ft | 479 kts | 205° |
| 2026-04-13 01:11 | 22.64683 | -35.07290 | 34178 ft | 478 kts | 204° |
| 2026-04-13 01:11 | 22.52340 | -35.12804 | 34180 ft | 478 kts | 205° |
| 2026-04-13 01:12 | 22.40089 | -35.18270 | 34171 ft | 478 kts | 205° |
| 2026-04-13 01:12 | 22.27761 | -35.23762 | 34172 ft | 478 kts | 204° |
| 2026-04-13 01:13 | 22.15526 | -35.29200 | 34178 ft | 476 kts | 205° |
| 2026-04-13 01:13 | 22.03236 | -35.34653 | 34159 ft | 476 kts | 205° |
| 2026-04-13 01:14 | 21.90967 | -35.40085 | 34177 ft | 476 kts | 205° |
| 2026-04-13 01:14 | 21.78765 | -35.45468 | 34163 ft | 475 kts | 205° |
| 2026-04-13 01:15 | 21.68583 | -35.49961 | 34158 ft | 475 kts | 204° |
| 2026-04-13 01:15 | 21.54340 | -35.56233 | 34152 ft | 472 kts | 205° |
| 2026-04-13 01:16 | 21.44156 | -35.60713 | 34152 ft | 472 kts | 205° |
| 2026-04-13 01:16 | 21.32069 | -35.66020 | 34153 ft | 472 kts | 205° |
| 2026-04-13 01:17 | 21.19981 | -35.71315 | 34151 ft | 468 kts | 206° |
| 2026-04-13 01:17 | 21.07909 | -35.76588 | 34141 ft | 468 kts | 206° |
| 2026-04-13 01:18 | 20.95831 | -35.81855 | 34136 ft | 464 kts | 207° |
| 2026-04-13 01:18 | 20.83926 | -35.87046 | 34137 ft | 463 kts | 207° |
| 2026-04-13 01:19 | 20.72010 | -35.92231 | 34139 ft | 463 kts | 207° |
| 2026-04-13 01:19 | 20.60100 | -35.97402 | 34137 ft | 460 kts | 208° |
| 2026-04-13 01:20 | 20.48213 | -36.02559 | 34134 ft | 461 kts | 208° |
| 2026-04-13 01:20 | 20.36357 | -36.07690 | 34135 ft | 461 kts | 208° |
| 2026-04-13 01:21 | 20.24448 | -36.12826 | 34129 ft | 461 kts | 208° |
| 2026-04-13 01:21 | 20.12535 | -36.17965 | 34127 ft | 461 kts | 208° |
| 2026-04-13 01:22 | 20.00729 | -36.23050 | 34123 ft | 459 kts | 208° |
| 2026-04-13 01:22 | 19.88789 | -36.28185 | 34123 ft | 461 kts | 208° |
| 2026-04-13 01:23 | 19.76916 | -36.33282 | 34111 ft | 461 kts | 209° |
| 2026-04-13 01:23 | 19.64172 | -36.38746 | 34116 ft | 468 kts | 208° |
| 2026-04-13 01:24 | 19.42548 | -36.47980 | 34122 ft | 469 kts | 208° |
| 2026-04-13 01:24 | 19.18366 | -36.58288 | 34074 ft | 469 kts | 208° |
| 2026-04-13 01:25 | 18.94126 | -36.68588 | 34104 ft | 470 kts | 208° |
| 2026-04-13 01:25 | 18.69831 | -36.78871 | 34096 ft | 471 kts | 208° |
| 2026-04-13 01:26 | 18.45524 | -36.89134 | 34094 ft | 471 kts | 208° |
| 2026-04-13 01:26 | 18.21236 | -36.99359 | 34082 ft | 470 kts | 208° |
| 2026-04-13 01:27 | 17.96860 | -37.09583 | 34059 ft | 471 kts | 208° |
| 2026-04-13 01:27 | 17.72588 | -37.19738 | 34077 ft | 471 kts | 208° |
| 2026-04-13 01:28 | 17.48104 | -37.29954 | 34078 ft | 472 kts | 207° |
| 2026-04-13 01:28 | 17.23798 | -37.40063 | 34078 ft | 472 kts | 207° |
| 2026-04-13 01:29 | 16.99290 | -37.50199 | 34070 ft | 473 kts | 206° |
| 2026-04-13 01:29 | 16.74506 | -37.59675 | 34060 ft | 473 kts | 206° |
| 2026-04-13 01:30 | 16.49864 | -37.69074 | 34059 ft | 472 kts | 206° |
| 2026-04-13 01:30 | 16.25306 | -37.78415 | 34065 ft | 472 kts | 206° |
| 2026-04-13 01:31 | 16.00611 | -37.87774 | 34056 ft | 471 kts | 206° |
| 2026-04-13 01:31 | 15.75960 | -37.97100 | 34067 ft | 471 kts | 206° |
| 2026-04-13 01:32 | 15.51321 | -38.06397 | 34050 ft | 470 kts | 206° |
| 2026-04-13 01:32 | 15.26748 | -38.15638 | 34048 ft | 469 kts | 206° |
| 2026-04-13 01:33 | 15.02277 | -38.24825 | 34045 ft | 470 kts | 206° |
| 2026-04-13 01:33 | 14.77601 | -38.34066 | 34042 ft | 470 kts | 206° |
| 2026-04-13 01:34 | 14.53026 | -38.43240 | 34039 ft | 469 kts | 206° |
| 2026-04-13 01:34 | 14.28534 | -38.52368 | 34037 ft | 469 kts | 206° |
| 2026-04-13 01:35 | 14.04100 | -38.61454 | 34035 ft | 469 kts | 206° |
| 2026-04-13 01:35 | 13.79464 | -38.70590 | 34026 ft | 470 kts | 206° |
| 2026-04-13 01:36 | 13.55013 | -38.79638 | 34025 ft | 468 kts | 206° |
| 2026-04-13 01:36 | 13.30531 | -38.88680 | 34017 ft | 467 kts | 206° |
| 2026-04-13 01:37 | 13.06051 | -38.97700 | 34017 ft | 466 kts | 206° |
| 2026-04-13 01:37 | 12.81717 | -39.07008 | 34004 ft | 465 kts | 207° |
| 2026-04-13 01:38 | 12.57718 | -39.16296 | 34012 ft | 465 kts | 207° |
| 2026-04-13 01:38 | 12.33545 | -39.25629 | 34009 ft | 462 kts | 207° |
| 2026-04-13 01:39 | 12.09633 | -39.34837 | 34004 ft | 457 kts | 206° |
| 2026-04-13 01:39 | 11.85689 | -39.44047 | 34003 ft | 457 kts | 206° |
| 2026-04-13 01:40 | 11.61898 | -39.53181 | 34001 ft | 457 kts | 206° |
| 2026-04-13 01:40 | 11.38047 | -39.62318 | 34000 ft | 458 kts | 206° |
| 2026-04-13 01:41 | 11.14307 | -39.71397 | 33993 ft | 458 kts | 206° |
| 2026-04-13 01:41 | 10.90304 | -39.80563 | 33991 ft | 460 kts | 205° |
| 2026-04-13 01:42 | 10.66306 | -39.89710 | 34001 ft | 462 kts | 205° |
| 2026-04-13 01:42 | 10.42213 | -39.98872 | 33973 ft | 462 kts | 205° |
| 2026-04-13 01:43 | 9.93843 | -40.17234 | 33969 ft | 467 kts | 205° |
| 2026-04-13 01:44 | 9.69453 | -40.26465 | 33969 ft | 471 kts | 205° |
| 2026-04-13 01:44 | 9.44894 | -40.35750 | 33964 ft | 474 kts | 204° |
| 2026-04-13 01:45 | 9.20189 | -40.45076 | 33952 ft | 475 kts | 203° |
| 2026-04-13 01:45 | 8.95234 | -40.54477 | 33958 ft | 478 kts | 203° |
| 2026-04-13 01:46 | 8.70133 | -40.63924 | 33957 ft | 481 kts | 203° |
| 2026-04-13 01:46 | 8.45152 | -40.73313 | 33946 ft | 482 kts | 203° |
| 2026-04-13 01:47 | 8.19958 | -40.82764 | 33946 ft | 482 kts | 203° |
| 2026-04-13 01:47 | 7.94786 | -40.92198 | 33941 ft | 482 kts | 203° |
| 2026-04-13 01:48 | 7.69606 | -41.01623 | 33939 ft | 484 kts | 203° |
| 2026-04-13 01:48 | 7.44402 | -41.11042 | 33938 ft | 484 kts | 203° |
| 2026-04-13 01:49 | 7.22782 | -41.19114 | 33935 ft | 486 kts | 203° |
| 2026-04-13 01:49 | 7.10067 | -41.23858 | 33937 ft | 487 kts | 202° |
| 2026-04-13 01:50 | 6.97386 | -41.28586 | 33930 ft | 488 kts | 202° |
| 2026-04-13 01:50 | 6.84660 | -41.33328 | 33927 ft | 488 kts | 202° |
| 2026-04-13 01:51 | 6.71954 | -41.38060 | 33926 ft | 488 kts | 202° |
| 2026-04-13 01:51 | 6.59173 | -41.42814 | 33926 ft | 488 kts | 202° |
| 2026-04-13 01:52 | 6.46530 | -41.47518 | 33928 ft | 487 kts | 202° |
| 2026-04-13 01:52 | 6.33744 | -41.52272 | 33921 ft | 487 kts | 202° |
| 2026-04-13 01:53 | 6.21106 | -41.56968 | 33918 ft | 487 kts | 202° |
| 2026-04-13 01:53 | 6.08339 | -41.61710 | 33919 ft | 488 kts | 202° |
| 2026-04-13 01:54 | 5.95596 | -41.66441 | 33920 ft | 488 kts | 202° |
| 2026-04-13 01:54 | 5.82865 | -41.71162 | 33918 ft | 488 kts | 202° |
| 2026-04-13 01:55 | 5.70127 | -41.75886 | 33923 ft | 488 kts | 202° |
| 2026-04-13 01:55 | 5.57385 | -41.80609 | 33918 ft | 489 kts | 202° |
| 2026-04-13 01:56 | 5.44622 | -41.85338 | 33919 ft | 489 kts | 202° |
| 2026-04-13 01:56 | 5.31876 | -41.90059 | 33915 ft | 489 kts | 202° |
| 2026-04-13 01:57 | 5.18862 | -41.94129 | 33915 ft | 491 kts | 197° |
| 2026-04-13 01:57 | 5.05685 | -41.97767 | 33917 ft | 489 kts | 197° |
| 2026-04-13 01:58 | 4.92602 | -42.01446 | 33910 ft | 490 kts | 197° |
| 2026-04-13 01:58 | 4.79470 | -42.05138 | 33909 ft | 489 kts | 197° |
| 2026-04-13 01:59 | 4.66493 | -42.09025 | 33910 ft | 489 kts | 195° |
| 2026-04-13 01:59 | 4.53419 | -42.12448 | 33905 ft | 488 kts | 197° |
| 2026-04-13 02:00 | 4.40347 | -42.16123 | 33906 ft | 487 kts | 197° |
| 2026-04-13 02:00 | 4.27314 | -42.19784 | 33903 ft | 486 kts | 197° |
| 2026-04-13 02:01 | 4.14288 | -42.23438 | 33903 ft | 486 kts | 196° |
| 2026-04-13 02:01 | 4.01256 | -42.27093 | 33912 ft | 485 kts | 196° |
| 2026-04-13 02:02 | 3.88326 | -42.30719 | 33901 ft | 484 kts | 196° |
| 2026-04-13 02:02 | 3.75285 | -42.34374 | 33895 ft | 485 kts | 196° |
| 2026-04-13 02:03 | 3.62329 | -42.38004 | 33900 ft | 483 kts | 195° |
| 2026-04-13 02:03 | 3.49368 | -42.41633 | 33915 ft | 485 kts | 195° |
| 2026-04-13 02:04 | 3.36400 | -42.45265 | 33898 ft | 484 kts | 195° |
| 2026-04-13 02:04 | 3.23400 | -42.48904 | 33902 ft | 485 kts | 195° |
| 2026-04-13 02:05 | 3.10415 | -42.52538 | 33899 ft | 485 kts | 195° |
| 2026-04-13 02:05 | 2.97444 | -42.56167 | 33898 ft | 485 kts | 195° |
| 2026-04-13 02:06 | 2.84433 | -42.59807 | 33899 ft | 486 kts | 195° |
| 2026-04-13 02:06 | 2.71404 | -42.63450 | 33900 ft | 486 kts | 195° |
| 2026-04-13 02:07 | 2.58394 | -42.67088 | 33898 ft | 486 kts | 195° |
| 2026-04-13 02:07 | 2.45353 | -42.70733 | 33893 ft | 486 kts | 195° |
| 2026-04-13 02:08 | 2.34517 | -42.73762 | 33893 ft | 486 kts | 195° |
| 2026-04-13 02:08 | 2.19345 | -42.78002 | 33896 ft | 487 kts | 195° |
| 2026-04-13 02:09 | 2.06308 | -42.81653 | 33895 ft | 487 kts | 195° |
| 2026-04-13 02:09 | 1.95436 | -42.84755 | 33889 ft | 486 kts | 195° |
| 2026-04-13 02:10 | 1.82400 | -42.88479 | 33892 ft | 487 kts | 195° |
| 2026-04-13 02:10 | 1.69342 | -42.92205 | 33891 ft | 487 kts | 195° |
| 2026-04-13 02:11 | 1.56310 | -42.95923 | 33885 ft | 487 kts | 195° |
| 2026-04-13 02:11 | 1.43255 | -42.99648 | 33885 ft | 488 kts | 195° |
| 2026-04-13 02:12 | 1.30270 | -43.03352 | 33883 ft | 488 kts | 195° |
| 2026-04-13 02:12 | 1.17182 | -43.07084 | 33888 ft | 490 kts | 195° |
| 2026-04-13 02:13 | 1.04062 | -43.10826 | 33895 ft | 490 kts | 195° |
| 2026-04-13 02:13 | 0.90986 | -43.14555 | 33895 ft | 490 kts | 195° |
| 2026-04-13 02:14 | 0.77844 | -43.18303 | 33897 ft | 493 kts | 195° |
| 2026-04-13 02:14 | 0.64613 | -43.22075 | 33882 ft | 491 kts | 195° |
| 2026-04-13 02:15 | 0.51468 | -43.25823 | 33885 ft | 492 kts | 195° |
| 2026-04-13 02:15 | 0.38361 | -43.29560 | 33886 ft | 492 kts | 195° |
| 2026-04-13 02:16 | 0.25191 | -43.33314 | 33885 ft | 492 kts | 194° |
| 2026-04-13 02:16 | 0.12009 | -43.37072 | 33884 ft | 493 kts | 194° |
| 2026-04-13 02:17 | -0.01180 | -43.40832 | 33881 ft | 493 kts | 194° |
| 2026-04-13 02:17 | -0.14390 | -43.44598 | 33888 ft | 492 kts | 194° |
| 2026-04-13 02:18 | -0.27482 | -43.48330 | 33891 ft | 492 kts | 195° |
| 2026-04-13 02:18 | -0.40648 | -43.52084 | 33886 ft | 491 kts | 195° |
| 2026-04-13 02:19 | -0.53787 | -43.55829 | 33883 ft | 492 kts | 195° |
| 2026-04-13 02:19 | -0.66901 | -43.59687 | 33883 ft | 492 kts | 197° |
| 2026-04-13 02:20 | -0.79895 | -43.64082 | 33891 ft | 491 kts | 197° |
| 2026-04-13 02:20 | -0.92793 | -43.68431 | 33877 ft | 492 kts | 197° |
| 2026-04-13 02:21 | -1.05826 | -43.72812 | 33885 ft | 492 kts | 197° |
| 2026-04-13 02:21 | -1.18787 | -43.77170 | 33882 ft | 493 kts | 197° |
| 2026-04-13 02:22 | -1.31779 | -43.81540 | 33880 ft | 493 kts | 197° |
| 2026-04-13 02:22 | -1.44775 | -43.85912 | 33881 ft | 493 kts | 197° |
| 2026-04-13 02:23 | -1.57785 | -43.90289 | 33876 ft | 494 kts | 197° |
| 2026-04-13 02:23 | -1.70796 | -43.94666 | 33875 ft | 493 kts | 197° |
| 2026-04-13 02:24 | -1.83772 | -43.99033 | 33878 ft | 494 kts | 197° |
| 2026-04-13 02:24 | -1.96803 | -44.03418 | 33878 ft | 494 kts | 197° |
| 2026-04-13 02:25 | -2.09856 | -44.07812 | 33879 ft | 494 kts | 197° |
| 2026-04-13 02:25 | -2.22823 | -44.12177 | 33878 ft | 494 kts | 197° |
| 2026-04-13 02:26 | -2.35864 | -44.16569 | 33896 ft | 494 kts | 197° |
| 2026-04-13 02:26 | -2.48872 | -44.20931 | 33905 ft | 494 kts | 196° |
| 2026-04-13 02:27 | -2.62155 | -44.24687 | 33905 ft | 493 kts | 193° |
| 2026-04-13 02:27 | -2.74810 | -44.29469 | 33609 ft | 499 kts | 233° |
| 2026-04-13 02:27 | -2.78591 | -44.35019 | 33876 ft | 490 kts | 225° |
| 2026-04-13 02:28 | -2.84016 | -44.39243 | 33883 ft | 494 kts | 207° |
| 2026-04-13 02:28 | -2.90383 | -44.41653 | 33882 ft | 491 kts | 190° |
| 2026-04-13 02:28 | -2.97178 | -44.42180 | 33885 ft | 488 kts | 177° |
| 2026-04-13 02:29 | -3.10721 | -44.41138 | 33885 ft | 488 kts | 174° |
| 2026-04-13 02:29 | -3.24243 | -44.41860 | 33892 ft | 491 kts | 192° |
| 2026-04-13 02:30 | -3.37428 | -44.45535 | 33893 ft | 492 kts | 194° |
| 2026-04-13 02:30 | -3.50624 | -44.49227 | 33894 ft | 492 kts | 194° |
| 2026-04-13 02:31 | -3.63788 | -44.52862 | 33895 ft | 493 kts | 194° |
| 2026-04-13 02:31 | -3.77031 | -44.56544 | 33894 ft | 494 kts | 194° |
| 2026-04-13 02:32 | -3.90231 | -44.60211 | 33899 ft | 495 kts | 194° |
| 2026-04-13 02:32 | -4.03582 | -44.63619 | 33899 ft | 495 kts | 193° |
| 2026-04-13 02:33 | -4.16965 | -44.66975 | 33897 ft | 497 kts | 193° |
| 2026-04-13 02:33 | -4.30376 | -44.70387 | 33896 ft | 497 kts | 194° |
| 2026-04-13 02:34 | -4.43706 | -44.74138 | 33899 ft | 498 kts | 195° |
| 2026-04-13 02:34 | -4.57021 | -44.77902 | 33897 ft | 498 kts | 195° |
| 2026-04-13 02:35 | -4.70343 | -44.81656 | 33896 ft | 498 kts | 195° |
| 2026-04-13 02:35 | -4.83667 | -44.85414 | 33898 ft | 497 kts | 195° |
| 2026-04-13 02:36 | -4.97004 | -44.89177 | 33896 ft | 497 kts | 195° |
| 2026-04-13 02:36 | -5.10307 | -44.92932 | 33897 ft | 497 kts | 195° |
| 2026-04-13 02:37 | -5.23583 | -44.96683 | 33896 ft | 497 kts | 195° |
| 2026-04-13 02:37 | -5.36910 | -45.00448 | 33894 ft | 497 kts | 195° |
| 2026-04-13 02:38 | -5.50288 | -45.04228 | 33895 ft | 498 kts | 195° |
| 2026-04-13 02:38 | -5.63621 | -45.07999 | 33894 ft | 498 kts | 195° |
| 2026-04-13 02:39 | -5.76916 | -45.11760 | 33894 ft | 498 kts | 195° |
| 2026-04-13 02:39 | -5.90226 | -45.15527 | 33897 ft | 498 kts | 195° |
| 2026-04-13 02:40 | -6.03593 | -45.19260 | 33900 ft | 499 kts | 195° |
| 2026-04-13 02:40 | -6.16910 | -45.22962 | 33903 ft | 497 kts | 195° |
| 2026-04-13 02:41 | -6.30278 | -45.26674 | 33900 ft | 498 kts | 195° |
| 2026-04-13 02:41 | -6.43664 | -45.30386 | 33906 ft | 498 kts | 195° |
| 2026-04-13 02:42 | -6.57017 | -45.34091 | 33906 ft | 499 kts | 195° |
| 2026-04-13 02:42 | -6.70358 | -45.37795 | 33906 ft | 499 kts | 195° |
| 2026-04-13 02:43 | -6.83720 | -45.41506 | 33898 ft | 498 kts | 195° |
| 2026-04-13 02:43 | -6.97072 | -45.45218 | 33893 ft | 498 kts | 195° |
| 2026-04-13 02:44 | -7.10455 | -45.48941 | 33888 ft | 500 kts | 196° |
| 2026-04-13 02:44 | -7.23855 | -45.52671 | 33887 ft | 500 kts | 196° |
| 2026-04-13 02:45 | -7.37273 | -45.56407 | 33887 ft | 500 kts | 196° |
| 2026-04-13 02:45 | -7.50660 | -45.60138 | 33887 ft | 500 kts | 196° |
| 2026-04-13 02:46 | -7.64145 | -45.63897 | 33889 ft | 500 kts | 196° |
| 2026-04-13 02:46 | -7.77535 | -45.67633 | 33889 ft | 500 kts | 196° |
| 2026-04-13 02:47 | -7.97639 | -45.73249 | 33892 ft | 499 kts | 196° |
| 2026-04-13 02:47 | -8.10939 | -45.76966 | 33893 ft | 499 kts | 196° |
| 2026-04-13 02:48 | -8.24287 | -45.80751 | 33890 ft | 497 kts | 196° |
| 2026-04-13 02:48 | -8.37575 | -45.84549 | 33892 ft | 497 kts | 196° |
| 2026-04-13 02:49 | -8.50883 | -45.88351 | 33895 ft | 497 kts | 196° |
| 2026-04-13 02:49 | -8.64240 | -45.92170 | 33895 ft | 497 kts | 196° |
| 2026-04-13 02:50 | -8.77526 | -45.95971 | 33892 ft | 495 kts | 196° |
| 2026-04-13 02:50 | -8.90775 | -45.99765 | 33895 ft | 495 kts | 196° |
| 2026-04-13 02:51 | -9.03947 | -46.03541 | 33892 ft | 493 kts | 196° |
| 2026-04-13 02:51 | -9.17141 | -46.07316 | 33891 ft | 492 kts | 196° |
| 2026-04-13 02:52 | -9.30301 | -46.11066 | 33894 ft | 492 kts | 196° |
| 2026-04-13 02:52 | -9.43471 | -46.14823 | 33893 ft | 492 kts | 196° |
| 2026-04-13 02:53 | -9.54979 | -46.18108 | 33898 ft | 493 kts | 196° |
| 2026-04-13 02:53 | -9.68094 | -46.21855 | 33902 ft | 490 kts | 196° |
| 2026-04-13 02:54 | -9.81226 | -46.25610 | 33904 ft | 489 kts | 196° |
| 2026-04-13 02:54 | -9.94300 | -46.29352 | 33906 ft | 488 kts | 196° |
| 2026-04-13 02:55 | -10.07372 | -46.33099 | 33911 ft | 488 kts | 196° |
| 2026-04-13 02:55 | -10.20461 | -46.36909 | 33911 ft | 486 kts | 198° |
| 2026-04-13 02:56 | -10.33304 | -46.40947 | 33913 ft | 486 kts | 198° |
| 2026-04-13 02:56 | -10.46263 | -46.45017 | 33916 ft | 483 kts | 198° |
| 2026-04-13 02:57 | -10.59039 | -46.49026 | 33919 ft | 482 kts | 198° |
| 2026-04-13 02:57 | -10.71880 | -46.53060 | 33919 ft | 482 kts | 198° |
| 2026-04-13 02:58 | -10.84676 | -46.57083 | 33924 ft | 482 kts | 198° |
| 2026-04-13 02:58 | -10.97487 | -46.61115 | 33937 ft | 482 kts | 198° |
| 2026-04-13 02:59 | -11.10266 | -46.65144 | 33928 ft | 480 kts | 198° |
| 2026-04-13 02:59 | -11.23061 | -46.69179 | 33928 ft | 480 kts | 198° |
| 2026-04-13 03:00 | -11.35806 | -46.73201 | 33929 ft | 480 kts | 198° |
| 2026-04-13 03:00 | -11.48573 | -46.77233 | 33928 ft | 480 kts | 198° |
| 2026-04-13 03:01 | -11.61257 | -46.81243 | 33917 ft | 478 kts | 198° |
| 2026-04-13 03:01 | -11.73946 | -46.85260 | 33916 ft | 478 kts | 198° |
| 2026-04-13 03:02 | -11.86689 | -46.89300 | 33911 ft | 478 kts | 198° |
| 2026-04-13 03:02 | -11.97204 | -46.92755 | 33910 ft | 477 kts | 200° |
| 2026-04-13 03:03 | -12.11798 | -46.97935 | 33903 ft | 477 kts | 200° |
| 2026-04-13 03:03 | -12.22285 | -47.01644 | 33904 ft | 476 kts | 200° |
| 2026-04-13 03:04 | -12.34798 | -47.06068 | 33901 ft | 476 kts | 200° |
| 2026-04-13 03:04 | -12.47269 | -47.10484 | 33904 ft | 473 kts | 200° |
| 2026-04-13 03:05 | -12.59651 | -47.14872 | 33908 ft | 473 kts | 200° |
| 2026-04-13 03:05 | -12.72121 | -47.19297 | 33915 ft | 472 kts | 200° |
| 2026-04-13 03:06 | -12.84560 | -47.23720 | 33913 ft | 472 kts | 200° |
| 2026-04-13 03:06 | -12.96890 | -47.28103 | 33929 ft | 472 kts | 200° |
| 2026-04-13 03:07 | -13.09295 | -47.32518 | 33924 ft | 471 kts | 200° |
| 2026-04-13 03:07 | -13.21684 | -47.36932 | 33933 ft | 471 kts | 200° |
| 2026-04-13 03:08 | -13.34083 | -47.41354 | 33938 ft | 471 kts | 201° |
| 2026-04-13 03:08 | -13.46474 | -47.45779 | 33950 ft | 470 kts | 201° |
| 2026-04-13 03:09 | -13.58772 | -47.50179 | 33962 ft | 470 kts | 201° |
| 2026-04-13 03:09 | -13.71125 | -47.54601 | 33979 ft | 470 kts | 201° |
| 2026-04-13 03:10 | -13.83477 | -47.59026 | 33979 ft | 470 kts | 201° |
| 2026-04-13 03:10 | -13.95819 | -47.63452 | 33976 ft | 469 kts | 201° |
| 2026-04-13 03:11 | -14.08171 | -47.67887 | 33969 ft | 469 kts | 201° |
| 2026-04-13 03:11 | -14.20427 | -47.72293 | 33977 ft | 469 kts | 201° |
| 2026-04-13 03:12 | -14.32760 | -47.76733 | 33984 ft | 469 kts | 201° |
| 2026-04-13 03:12 | -14.45088 | -47.81179 | 33986 ft | 468 kts | 201° |
| 2026-04-13 03:13 | -14.57383 | -47.85614 | 33991 ft | 468 kts | 201° |
| 2026-04-13 03:13 | -14.69661 | -47.90049 | 34007 ft | 467 kts | 201° |
| 2026-04-13 03:14 | -14.81930 | -47.94485 | 33997 ft | 466 kts | 201° |
| 2026-04-13 03:14 | -14.94101 | -47.98891 | 33997 ft | 466 kts | 201° |
| 2026-04-13 03:15 | -15.06355 | -48.03333 | 33987 ft | 466 kts | 202° |
| 2026-04-13 03:15 | -15.18591 | -48.07779 | 33995 ft | 466 kts | 202° |
| 2026-04-13 03:16 | -15.30820 | -48.12223 | 34006 ft | 466 kts | 202° |
| 2026-04-13 03:16 | -15.43123 | -48.16560 | 33995 ft | 468 kts | 198° |
| 2026-04-13 03:17 | -15.55883 | -48.19442 | 34014 ft | 470 kts | 195° |
| 2026-04-13 03:17 | -15.68689 | -48.22267 | 34021 ft | 470 kts | 195° |
| 2026-04-13 03:18 | -15.81397 | -48.25122 | 34034 ft | 470 kts | 195° |
| 2026-04-13 03:18 | -15.94221 | -48.28005 | 34022 ft | 471 kts | 195° |
| 2026-04-13 03:19 | -16.07043 | -48.30890 | 34021 ft | 471 kts | 195° |
| 2026-04-13 03:19 | -16.19869 | -48.33780 | 34020 ft | 472 kts | 195° |
| 2026-04-13 03:20 | -16.32713 | -48.36682 | 34018 ft | 472 kts | 195° |
| 2026-04-13 03:20 | -16.45473 | -48.39566 | 34018 ft | 472 kts | 195° |
| 2026-04-13 03:21 | -16.58316 | -48.42471 | 34017 ft | 472 kts | 195° |
| 2026-04-13 03:21 | -16.71105 | -48.45619 | 34017 ft | 470 kts | 203° |
| 2026-04-13 03:22 | -16.82826 | -48.51535 | 34014 ft | 468 kts | 210° |
| 2026-04-13 03:22 | -16.94487 | -48.57609 | 34013 ft | 468 kts | 208° |
| 2026-04-13 03:23 | -17.06122 | -48.63571 | 34010 ft | 468 kts | 208° |
| 2026-04-13 03:23 | -17.17835 | -48.69587 | 34009 ft | 468 kts | 208° |
| 2026-04-13 03:24 | -17.29451 | -48.75730 | 34009 ft | 467 kts | 210° |
| 2026-04-13 03:24 | -17.40997 | -48.81977 | 34007 ft | 467 kts | 210° |
| 2026-04-13 03:25 | -17.52540 | -48.88212 | 34001 ft | 466 kts | 210° |
| 2026-04-13 03:25 | -17.63980 | -48.94400 | 34004 ft | 464 kts | 210° |
| 2026-04-13 03:26 | -17.75471 | -49.00607 | 33999 ft | 464 kts | 210° |
| 2026-04-13 03:26 | -17.86990 | -49.06718 | 34004 ft | 463 kts | 210° |
| 2026-04-13 03:27 | -17.98485 | -49.12820 | 33999 ft | 462 kts | 210° |
| 2026-04-13 03:27 | -18.09962 | -49.18927 | 33996 ft | 462 kts | 210° |
| 2026-04-13 03:28 | -18.21379 | -49.25087 | 33992 ft | 461 kts | 210° |
| 2026-04-13 03:28 | -18.32707 | -49.31213 | 33988 ft | 460 kts | 210° |
| 2026-04-13 03:29 | -18.44127 | -49.37394 | 33982 ft | 461 kts | 210° |
| 2026-04-13 03:29 | -18.55533 | -49.43578 | 33982 ft | 461 kts | 210° |
| 2026-04-13 03:30 | -18.66929 | -49.49765 | 33980 ft | 460 kts | 210° |
| 2026-04-13 03:30 | -18.78306 | -49.55952 | 33985 ft | 461 kts | 210° |
| 2026-04-13 03:31 | -18.89728 | -49.62205 | 33976 ft | 461 kts | 211° |
| 2026-04-13 03:31 | -19.01044 | -49.68421 | 33976 ft | 461 kts | 210° |
| 2026-04-13 03:32 | -19.12448 | -49.74690 | 33980 ft | 463 kts | 210° |
| 2026-04-13 03:32 | -19.23878 | -49.80982 | 33980 ft | 463 kts | 210° |
| 2026-04-13 03:33 | -19.35317 | -49.87279 | 33979 ft | 463 kts | 210° |
| 2026-04-13 03:33 | -19.46844 | -49.93462 | 33976 ft | 464 kts | 209° |
| 2026-04-13 03:34 | -19.58379 | -49.99641 | 33976 ft | 465 kts | 209° |
| 2026-04-13 03:34 | -19.69920 | -50.05838 | 33981 ft | 465 kts | 209° |
| 2026-04-13 03:35 | -19.81480 | -50.12055 | 33977 ft | 465 kts | 209° |
| 2026-04-13 03:35 | -19.93031 | -50.18278 | 33977 ft | 465 kts | 209° |
| 2026-04-13 03:36 | -20.04507 | -50.24481 | 33976 ft | 466 kts | 209° |
| 2026-04-13 03:36 | -20.16057 | -50.30747 | 33978 ft | 466 kts | 209° |
| 2026-04-13 03:37 | -20.27625 | -50.37042 | 33979 ft | 466 kts | 209° |
| 2026-04-13 03:37 | -20.39198 | -50.43348 | 33980 ft | 466 kts | 210° |
| 2026-04-13 03:38 | -20.50683 | -50.49617 | 33983 ft | 466 kts | 210° |
| 2026-04-13 03:38 | -20.62247 | -50.55939 | 33981 ft | 464 kts | 210° |
| 2026-04-13 03:39 | -20.73751 | -50.62239 | 33982 ft | 464 kts | 210° |
| 2026-04-13 03:39 | -20.85133 | -50.68594 | 33981 ft | 464 kts | 210° |
| 2026-04-13 03:40 | -20.96555 | -50.75070 | 33987 ft | 462 kts | 210° |
| 2026-04-13 03:40 | -21.07927 | -50.81517 | 33983 ft | 462 kts | 210° |
| 2026-04-13 03:41 | -21.19288 | -50.87982 | 33980 ft | 462 kts | 210° |
| 2026-04-13 03:41 | -21.30646 | -50.94458 | 33985 ft | 465 kts | 211° |
| 2026-04-13 03:42 | -21.42096 | -51.00986 | 33985 ft | 465 kts | 211° |
| 2026-04-13 03:43 | -21.59181 | -51.10685 | 33985 ft | 463 kts | 211° |
| 2026-04-13 03:43 | -21.70679 | -51.17123 | 33988 ft | 463 kts | 211° |
| 2026-04-13 03:44 | -21.82100 | -51.23389 | 33997 ft | 463 kts | 209° |
| 2026-04-13 03:44 | -21.93645 | -51.29663 | 34008 ft | 464 kts | 209° |
| 2026-04-13 03:45 | -22.05183 | -51.35953 | 34032 ft | 464 kts | 209° |
| 2026-04-13 03:45 | -22.16796 | -51.42100 | 34043 ft | 467 kts | 206° |
| 2026-04-13 03:46 | -22.28776 | -51.47631 | 34037 ft | 468 kts | 205° |
| 2026-04-13 03:46 | -22.40677 | -51.53159 | 34012 ft | 468 kts | 205° |
| 2026-04-13 03:47 | -22.52652 | -51.58747 | 33995 ft | 469 kts | 205° |
| 2026-04-13 03:47 | -22.64634 | -51.64348 | 33994 ft | 468 kts | 205° |
| 2026-04-13 03:48 | -22.76612 | -51.69958 | 34002 ft | 469 kts | 206° |
| 2026-04-13 03:48 | -22.88605 | -51.75564 | 34000 ft | 469 kts | 206° |
| 2026-04-13 03:49 | -23.00618 | -51.81169 | 34000 ft | 469 kts | 205° |
| 2026-04-13 03:49 | -23.12568 | -51.86756 | 34002 ft | 471 kts | 205° |
| 2026-04-13 03:50 | -23.24604 | -51.92394 | 34033 ft | 471 kts | 205° |
| 2026-04-13 03:50 | -23.36692 | -51.98069 | 34064 ft | 476 kts | 205° |
| 2026-04-13 03:51 | -23.48855 | -52.03791 | 34073 ft | 476 kts | 205° |
| 2026-04-13 03:51 | -23.60997 | -52.09521 | 34060 ft | 476 kts | 206° |
| 2026-04-13 03:52 | -23.77201 | -52.17183 | 34018 ft | 476 kts | 206° |
| 2026-04-13 03:52 | -23.91357 | -52.23893 | 34005 ft | 478 kts | 206° |
| 2026-04-13 03:53 | -24.01597 | -52.28758 | 34009 ft | 479 kts | 206° |
| 2026-04-13 03:53 | -24.13808 | -52.34570 | 34010 ft | 478 kts | 206° |
| 2026-04-13 03:54 | -24.25969 | -52.40364 | 34016 ft | 481 kts | 207° |
| 2026-04-13 03:54 | -24.38265 | -52.46212 | 34020 ft | 481 kts | 207° |
| 2026-04-13 03:55 | -24.50544 | -52.52099 | 34026 ft | 482 kts | 207° |
| 2026-04-13 03:55 | -24.62803 | -52.58000 | 34022 ft | 480 kts | 208° |
| 2026-04-13 03:56 | -24.74945 | -52.63898 | 34027 ft | 480 kts | 208° |
| 2026-04-13 03:56 | -24.87177 | -52.69830 | 34027 ft | 479 kts | 208° |
| 2026-04-13 03:57 | -24.99408 | -52.75700 | 34034 ft | 479 kts | 208° |
| 2026-04-13 03:57 | -25.11634 | -52.81581 | 34032 ft | 478 kts | 208° |
| 2026-04-13 03:58 | -25.23838 | -52.87476 | 34037 ft | 478 kts | 208° |
| 2026-04-13 03:58 | -25.36018 | -52.93406 | 34040 ft | 477 kts | 208° |
| 2026-04-13 03:59 | -25.48158 | -52.99320 | 34030 ft | 476 kts | 208° |
| 2026-04-13 03:59 | -25.60192 | -53.05196 | 34037 ft | 474 kts | 208° |
| 2026-04-13 04:00 | -25.72282 | -53.11114 | 34038 ft | 475 kts | 208° |
| 2026-04-13 04:00 | -25.84382 | -53.17047 | 34041 ft | 475 kts | 208° |
| 2026-04-13 04:01 | -25.96476 | -53.22989 | 34034 ft | 475 kts | 208° |
| 2026-04-13 04:01 | -26.08555 | -53.28937 | 34043 ft | 473 kts | 208° |
| 2026-04-13 04:02 | -26.20538 | -53.34853 | 34063 ft | 474 kts | 209° |
| 2026-04-13 04:02 | -26.32614 | -53.40828 | 34048 ft | 474 kts | 209° |
| 2026-04-13 04:03 | -26.44662 | -53.46816 | 34045 ft | 474 kts | 209° |
| 2026-04-13 04:03 | -26.56727 | -53.52818 | 34042 ft | 474 kts | 209° |
| 2026-04-13 04:04 | -26.68780 | -53.58832 | 34041 ft | 474 kts | 209° |
| 2026-04-13 04:04 | -26.80503 | -53.65232 | 34044 ft | 466 kts | 217° |
| 2026-04-13 04:05 | -26.91215 | -53.73294 | 34036 ft | 463 kts | 219° |
| 2026-04-13 04:05 | -27.01850 | -53.81245 | 34030 ft | 457 kts | 219° |
| 2026-04-13 04:06 | -27.12436 | -53.89132 | 34030 ft | 455 kts | 219° |
| 2026-04-13 04:06 | -27.22961 | -53.97002 | 34026 ft | 454 kts | 219° |
| 2026-04-13 04:07 | -27.33472 | -54.04868 | 34027 ft | 452 kts | 219° |
| 2026-04-13 04:07 | -27.43950 | -54.12729 | 34029 ft | 451 kts | 219° |
| 2026-04-13 04:08 | -27.54332 | -54.20535 | 34022 ft | 451 kts | 219° |
| 2026-04-13 04:08 | -27.64786 | -54.28393 | 34020 ft | 451 kts | 219° |
| 2026-04-13 04:09 | -27.75263 | -54.36194 | 34024 ft | 450 kts | 219° |
| 2026-04-13 04:09 | -27.85720 | -54.43992 | 34024 ft | 450 kts | 219° |
| 2026-04-13 04:10 | -27.96077 | -54.51913 | 34022 ft | 449 kts | 220° |
| 2026-04-13 04:10 | -28.06334 | -54.59819 | 34024 ft | 448 kts | 220° |
| 2026-04-13 04:11 | -28.16644 | -54.67777 | 34015 ft | 448 kts | 220° |
| 2026-04-13 04:11 | -28.26930 | -54.75787 | 34015 ft | 448 kts | 220° |
| 2026-04-13 04:12 | -28.37148 | -54.83862 | 34008 ft | 447 kts | 220° |
| 2026-04-13 04:12 | -28.47347 | -54.91929 | 34023 ft | 447 kts | 220° |
| 2026-04-13 04:13 | -28.57495 | -54.99974 | 34023 ft | 447 kts | 220° |
| 2026-04-13 04:13 | -28.67699 | -55.08082 | 34026 ft | 446 kts | 221° |
| 2026-04-13 04:14 | -28.77876 | -55.16188 | 34012 ft | 446 kts | 221° |
| 2026-04-13 04:14 | -28.88032 | -55.24298 | 34011 ft | 446 kts | 221° |
| 2026-04-13 04:15 | -28.98112 | -55.32391 | 34017 ft | 445 kts | 221° |
| 2026-04-13 04:15 | -29.08250 | -55.40532 | 34011 ft | 445 kts | 221° |
| 2026-04-13 04:16 | -29.18404 | -55.48699 | 34009 ft | 445 kts | 221° |
| 2026-04-13 04:16 | -29.28533 | -55.56867 | 34008 ft | 445 kts | 221° |
| 2026-04-13 04:17 | -29.38642 | -55.65038 | 34007 ft | 444 kts | 221° |
| 2026-04-13 04:17 | -29.48732 | -55.73215 | 34003 ft | 444 kts | 221° |
| 2026-04-13 04:18 | -29.58756 | -55.81359 | 34007 ft | 443 kts | 221° |
| 2026-04-13 04:18 | -29.68804 | -55.89571 | 34009 ft | 442 kts | 221° |
| 2026-04-13 04:19 | -29.78837 | -55.97765 | 34007 ft | 442 kts | 221° |
| 2026-04-13 04:19 | -29.88858 | -56.05968 | 34007 ft | 442 kts | 221° |
| 2026-04-13 04:20 | -29.98857 | -56.14171 | 34018 ft | 439 kts | 221° |
| 2026-04-13 04:20 | -30.08766 | -56.22324 | 34024 ft | 439 kts | 221° |
| 2026-04-13 04:21 | -30.18729 | -56.30541 | 34011 ft | 439 kts | 221° |
| 2026-04-13 04:21 | -30.28678 | -56.38774 | 34013 ft | 438 kts | 221° |
| 2026-04-13 04:22 | -30.38708 | -56.46329 | 34003 ft | 423 kts | 210° |
| 2026-04-13 04:22 | -30.43926 | -56.48651 | 33200 ft | 391 kts | 207° |
| 2026-04-13 04:22 | -30.49120 | -56.50928 | 30217 ft | 411 kts | 206° |
| 2026-04-13 04:23 | -30.54429 | -56.53470 | 27955 ft | 404 kts | 207° |
| 2026-04-13 04:23 | -30.59314 | -56.55975 | 27241 ft | 364 kts | 209° |
| 2026-04-13 04:23 | -30.63834 | -56.58430 | 25442 ft | 361 kts | 210° |
| 2026-04-13 04:23 | -30.68405 | -56.61073 | 23186 ft | 370 kts | 211° |
| 2026-04-13 04:24 | -30.72858 | -56.63777 | 21852 ft | 348 kts | 211° |
| 2026-04-13 04:24 | -30.77003 | -56.66399 | 20466 ft | 335 kts | 212° |
| 2026-04-13 04:24 | -30.81074 | -56.69141 | 18529 ft | 342 kts | 213° |
| 2026-04-13 04:24 | -30.85079 | -56.72045 | 16982 ft | 332 kts | 214° |
| 2026-04-13 04:25 | -30.88833 | -56.74926 | 15691 ft | 317 kts | 216° |
| 2026-04-13 04:25 | -30.92463 | -56.77877 | 14038 ft | 319 kts | 217° |
| 2026-04-13 04:25 | -30.96029 | -56.80929 | 12499 ft | 314 kts | 218° |
| 2026-04-13 04:25 | -30.99395 | -56.83902 | 11258 ft | 302 kts | 219° |
| 2026-04-13 04:26 | -31.02713 | -56.86874 | 9806 ft | 301 kts | 219° |
| 2026-04-13 04:26 | -31.06004 | -56.89849 | 8337 ft | 296 kts | 219° |
| 2026-04-13 04:26 | -31.09204 | -56.92801 | 7046 ft | 290 kts | 219° |
| 2026-04-13 04:26 | -31.12334 | -56.95758 | 5641 ft | 288 kts | 220° |
| 2026-04-13 04:27 | -31.15360 | -56.98683 | 4524 ft | 274 kts | 220° |
| 2026-04-13 04:27 | -31.18237 | -57.01556 | 3177 ft | 274 kts | 220° |
| 2026-04-13 04:27 | -31.21119 | -57.04569 | 1634 ft | 280 kts | 221° |
| 2026-04-13 04:27 | -31.23876 | -57.07512 | 719 ft | 262 kts | 221° |
| 2026-04-13 04:28 | -31.26357 | -57.10056 | 319 ft | 196 kts | 216° |